SondeTracker

Meteorological Radiosondes Database

Operations

Sounding was ended - last measurement: 2022-12-06 13:23:25z

MAP
About Radiosonde

Number: U3024749

Launch Site: Topeka [KS] (US)

Type: RS41

AUX: NO

Frequency: 404.001 MHz

Max Speed: 232 km/h at 11813 m

Average Speed: 138.07 km/h

Max Altitude: 31609 m

Average Ascent Speed: 5.25 m/s

Average Descent Speed: 10.88 m/s

Status: UNKNOWN

Status Changes
Launch Site Type AUX Frequency Status Finder Landing Point Description Changes made by
APRS Statistics

Received Frames: 493

First Frame [UTC]: 2022-12-06 11:05:58z

Last Frame [UTC]: 2022-12-06 13:23:25z

Receivers: KC0BQB, KD0ZJV-10, N0GRP-1

Flight Time: 02:17:27 h

Distance From First Measurement: 249.78 km

Nearest City: Moberly [MO] (US) [29.01 km]

Nearest Hunter: [0.00 km]

Ground Altitude: 194 m

Distance from QTH: 0.00 km

APRS Data
Receiver Number Date/Time [UTC] φ λ Course [°] Speed [km/h] Altitude [m] Description
KD0ZJV-10U30247492022-12-06 13:23:2539.3654-92.766970674495Clb=-9.4m/s t=-10.3C h=60.6% p=-1.0hPa 404.001 MHz Type=RS41-NG Radiosonde
N0GRP-1U30247492022-12-06 13:23:0839.3649-92.768768744570Clb=-9.5m/s t=-10.5C h=36.5% p=-1.0hPa 404.001 MHz Type=RS41-NG Radiosonde
KD0ZJV-10U30247492022-12-06 13:22:4639.3638-92.773576914752Clb=-9.3m/s t=-11.2C h=39.8% p=-1.0hPa 404.001 MHz Type=RS41-NG Radiosonde
N0GRP-1U30247492022-12-06 13:22:2639.3632-92.7771761004868Clb=-9.4m/s t=-11.5C h=36.2% p=-1.0hPa 404.001 MHz Type=RS41-NG Radiosonde
KD0ZJV-10U30247492022-12-06 13:22:0339.3618-92.7832721065062Clb=-10.0m/s t=-12.5C h=36.0% p=-1.0hPa 404.001 MHz Type=RS41-NG Radiosonde
N0GRP-1U30247492022-12-06 13:21:4839.3608-92.7872711075179Clb=-9.3m/s t=-13.3C h=36.6% p=-1.0hPa 404.001 MHz Type=RS41-NG Radiosonde
KD0ZJV-10U30247492022-12-06 13:21:2639.3592-92.7935721115355Clb=-9.2m/s t=-14.7C h=46.3% p=-1.0hPa 404.001 MHz Type=RS41-NG Radiosonde
N0GRP-1U30247492022-12-06 13:21:1039.3581-92.7979711115478Clb=-8.8m/s t=-15.7C h=44.9% p=-1.0hPa 404.001 MHz Type=RS41-NG Radiosonde
KD0ZJV-10U30247492022-12-06 13:20:4839.3566-92.8043741175640Clb=-9.0m/s t=-16.8C h=36.1% p=-1.0hPa 404.001 MHz Type=RS41-NG Radiosonde
N0GRP-1U30247492022-12-06 13:20:3139.3555-92.8093741155767Clb=-9.0m/s t=-17.6C h=25.3% p=-1.0hPa 404.001 MHz Type=RS41-NG Radiosonde
KD0ZJV-10U30247492022-12-06 13:20:0139.3539-92.8159711195928Clb=-8.7m/s t=-18.6C h=28.6% p=-1.0hPa 404.001 MHz Type=RS41-NG Radiosonde
N0GRP-1U30247492022-12-06 13:19:4339.3527-92.8202691176035Clb=-8.9m/s t=-19.5C h=64.5% p=-1.0hPa 404.001 MHz Type=RS41-NG Radiosonde
KD0ZJV-10U30247492022-12-06 13:19:1939.3504-92.828701246222Clb=-9.2m/s t=-20.8C h=38.6% p=-1.0hPa 404.001 MHz Type=RS41-NG Radiosonde
N0GRP-1U30247492022-12-06 13:19:0139.3492-92.8322681266321Clb=-8.8m/s t=-22.0C h=42.8% p=-1.0hPa 404.001 MHz Type=RS41-NG Radiosonde
KD0ZJV-10U30247492022-12-06 13:18:4039.3474-92.8386701246472Clb=-9.3m/s t=-23.3C h=61.4% p=-1.0hPa 404.001 MHz Type=RS41-NG Radiosonde
N0GRP-1U30247492022-12-06 13:18:2139.346-92.8435701226588Clb=-9.3m/s t=-24.5C h=64.3% p=-1.0hPa 404.001 MHz Type=RS41-NG Radiosonde
KD0ZJV-10U30247492022-12-06 13:17:5939.344-92.8502691246750Clb=-9.3m/s t=-25.9C h=69.6% p=-1.0hPa 404.001 MHz Type=RS41-NG Radiosonde
N0GRP-1U30247492022-12-06 13:17:3839.3425-92.8556701286874Clb=-8.9m/s t=-26.6C h=80.8% p=-1.0hPa 404.001 MHz Type=RS41-NG Radiosonde
KD0ZJV-10U30247492022-12-06 13:17:1339.3406-92.8623701317024Clb=-9.2m/s t=-27.6C h=69.8% p=-1.0hPa 404.001 MHz Type=RS41-NG Radiosonde
N0GRP-1U30247492022-12-06 13:16:5339.3391-92.8679721307147Clb=-8.9m/s t=-28.4C h=80.4% p=-1.0hPa 404.001 MHz Type=RS41-NG Radiosonde
KD0ZJV-10U30247492022-12-06 13:16:3239.3376-92.8746731267297Clb=-9.1m/s t=-29.5C h=89.1% p=-1.0hPa 404.001 MHz Type=RS41-NG Radiosonde
KD0ZJV-10U30247492022-12-06 13:15:5439.335-92.8877771397573Clb=-9.0m/s t=-31.0C h=94.5% p=-1.0hPa 404.001 MHz Type=RS41-NG Radiosonde
KD0ZJV-10U30247492022-12-06 13:15:0839.333-92.9013801467829Clb=-9.1m/s t=-32.7C h=90.3% p=-1.0hPa 404.001 MHz Type=RS41-NG Radiosonde
N0GRP-1U30247492022-12-06 13:14:5139.3322-92.9075811527937Clb=-9.2m/s t=-33.4C h=86.6% p=-1.0hPa 404.001 MHz Type=RS41-NG Radiosonde
KD0ZJV-10U30247492022-12-06 13:14:2639.3313-92.9164831568092Clb=-8.7m/s t=-34.7C h=83.4% p=-1.0hPa 404.001 MHz Type=RS41-NG Radiosonde
N0GRP-1U30247492022-12-06 13:14:1139.3308-92.923851618202Clb=-8.8m/s t=-35.5C h=82.5% p=-1.0hPa 404.001 MHz Type=RS41-NG Radiosonde
KD0ZJV-10U30247492022-12-06 13:13:4639.3302-92.9326861728359Clb=-8.6m/s t=-36.3C h=80.3% p=-1.0hPa 404.001 MHz Type=RS41-NG Radiosonde
N0GRP-1U30247492022-12-06 13:13:2739.3298-92.9404841748480Clb=-8.1m/s t=-37.0C h=68.8% p=-1.0hPa 404.001 MHz Type=RS41-NG Radiosonde
KD0ZJV-10U30247492022-12-06 13:12:5939.3288-92.9505831768631Clb=-9.1m/s t=-38.3C h=76.4% p=-1.0hPa 404.001 MHz Type=RS41-NG Radiosonde
N0GRP-1U30247492022-12-06 13:12:4139.3282-92.958831808744Clb=-8.9m/s t=-39.2C h=74.6% p=-1.0hPa 404.001 MHz Type=RS41-NG Radiosonde
KD0ZJV-10U30247492022-12-06 13:12:1639.3273-92.9685841838901Clb=-8.6m/s t=-40.4C h=75.6% p=-1.0hPa 404.001 MHz Type=RS41-NG Radiosonde
N0GRP-1U30247492022-12-06 13:12:0139.3265-92.9762821839015Clb=-9.1m/s t=-41.3C h=77.8% p=-1.0hPa 404.001 MHz Type=RS41-NG Radiosonde
KD0ZJV-10U30247492022-12-06 13:12:0039.3253-92.9868811899175Clb=-8.8m/s t=-42.4C h=76.1% p=-1.0hPa 404.001 MHz Type=RS41-NG Radiosonde
N0GRP-1U30247492022-12-06 13:11:5739.3244-92.9948801939287Clb=-8.8m/s t=-43.1C h=83.5% p=-1.0hPa 404.001 MHz Type=RS41-NG Radiosonde
KC0BQBU30247492022-12-06 13:11:5439.3234-93.0015791949384Clb=-9.0m/s t=-43.7C h=73.1% p=-1.0hPa 404.000 MHz Type=RS41-NG ser=U3024749 Radiosonde auto_rx v1.5.5
KD0ZJV-10U30247492022-12-06 13:11:5239.3228-93.0066802029455Clb=-8.8m/s t=-44.0C h=58.3% p=-1.0hPa 404.001 MHz Type=RS41-NG Radiosonde
N0GRP-1U30247492022-12-06 13:11:4939.3218-93.0144812119561Clb=-8.5m/s t=-44.3C h=42.7% p=-1.0hPa 404.001 MHz Type=RS41-NG Radiosonde
KC0BQBU30247492022-12-06 13:11:4839.321-93.0213812159650Clb=-9.5m/s t=-44.7C h=42.1% p=-1.0hPa 404.000 MHz Type=RS41-NG ser=U3024749 Radiosonde auto_rx v1.5.5
KD0ZJV-10U30247492022-12-06 13:11:4639.3204-93.0268812159722Clb=-9.0m/s t=-45.3C h=48.4% p=-1.0hPa 404.001 MHz Type=RS41-NG Radiosonde
N0GRP-1U30247492022-12-06 13:11:4239.3193-93.0357812139839Clb=-9.4m/s t=-46.4C h=60.3% p=-1.0hPa 404.001 MHz Type=RS41-NG Radiosonde
KC0BQBU30247492022-12-06 13:11:3939.3186-93.0418812159920Clb=-9.3m/s t=-47.1C h=63.8% p=-1.0hPa 404.000 MHz Type=RS41-NG ser=U3024749 Radiosonde auto_rx v1.5.5
KD0ZJV-10U30247492022-12-06 13:11:3839.318-93.04818221710001Clb=-9.4m/s t=-47.6C h=62.0% p=-1.0hPa 404.001 MHz Type=RS41-NG Radiosonde
KD0ZJV-10U30247492022-12-06 13:11:3739.3157-93.07018222210284Clb=-9.2m/s t=-49.4C h=55.8% p=-1.0hPa 404.001 MHz Type=RS41-NG Radiosonde
N0GRP-1U30247492022-12-06 13:11:3539.3146-93.07938222210406Clb=-9.8m/s t=-50.6C h=61.6% p=-1.0hPa 404.001 MHz Type=RS41-NG Radiosonde
KC0BQBU30247492022-12-06 13:11:3339.3141-93.08438222210474Clb=-9.6m/s t=-51.2C h=64.5% p=-1.0hPa 404.000 MHz Type=RS41-NG ser=U3024749 Radiosonde auto_rx v1.5.5
KD0ZJV-10U30247492022-12-06 13:11:2639.3133-93.09218122210580Clb=-10.0m/s t=-52.2C h=68.1% p=-1.0hPa 404.001 MHz Type=RS41-NG Radiosonde
N0GRP-1U30247492022-12-06 13:11:1539.3123-93.10138222010704Clb=-9.6m/s t=-53.4C h=70.5% p=-1.0hPa 404.001 MHz Type=RS41-NG Radiosonde
KC0BQBU30247492022-12-06 13:11:1139.3119-93.10568222010762Clb=-9.6m/s t=-54.0C h=70.9% p=-1.0hPa 404.000 MHz Type=RS41-NG ser=U3024749 Radiosonde auto_rx v1.5.5
KD0ZJV-10U30247492022-12-06 13:10:5139.3108-93.11638322410910Clb=-9.8m/s t=-55.1C h=64.1% p=-1.0hPa 404.001 MHz Type=RS41-NG Radiosonde
N0GRP-1U30247492022-12-06 13:10:3239.3101-93.12348122411008Clb=-9.7m/s t=-55.3C h=58.7% p=-1.0hPa 404.001 MHz Type=RS41-NG Radiosonde
KD0ZJV-10U30247492022-12-06 13:10:0039.3084-93.13778222411206Clb=-10.5m/s t=-57.2C h=60.3% p=-1.0hPa 404.001 MHz Type=RS41-NG Radiosonde
N0GRP-1U30247492022-12-06 13:09:3839.3076-93.14568222811314Clb=-9.9m/s t=-58.1C h=58.1% p=-1.0hPa 404.001 MHz Type=RS41-NG Radiosonde
KD0ZJV-10U30247492022-12-06 13:09:0739.306-93.16118423211526Clb=-10.0m/s t=-58.8C h=40.9% p=-1.0hPa 404.001 MHz Type=RS41-NG Radiosonde
N0GRP-1U30247492022-12-06 13:08:4439.3055-93.16868423211627Clb=-10.2m/s t=-59.4C h=36.9% p=-1.0hPa 404.001 MHz Type=RS41-NG Radiosonde
KC0BQBU30247492022-12-06 13:08:4139.3053-93.17088423011657Clb=-10.5m/s t=-59.6C h=35.4% p=-1.0hPa 404.000 MHz Type=RS41-NG ser=U3024749 Radiosonde auto_rx v1.5.5
KD0ZJV-10U30247492022-12-06 13:08:1339.3044-93.1828423211813Clb=-10.6m/s t=-60.3C h=28.1% p=-1.0hPa 404.001 MHz Type=RS41-NG Radiosonde
KC0BQBU30247492022-12-06 13:07:4539.3036-93.19328423211975Clb=-11.7m/s t=-60.7C h=21.7% p=-1.0hPa 404.000 MHz Type=RS41-NG ser=U3024749 Radiosonde auto_rx v1.5.5
KD0ZJV-10U30247492022-12-06 13:07:1339.3023-93.20488022412151Clb=-10.3m/s t=-61.1C h=17.2% p=-1.0hPa 404.001 MHz Type=RS41-NG Radiosonde
N0GRP-1U30247492022-12-06 13:06:5239.3012-93.21468021312302Clb=-10.7m/s t=-61.9C h=16.4% p=-1.0hPa 404.001 MHz Type=RS41-NG Radiosonde
KC0BQBU30247492022-12-06 13:06:5139.3012-93.21468021312302Clb=-10.7m/s t=-61.9C h=16.4% p=-1.0hPa 404.000 MHz Type=RS41-NG ser=U3024749 Radiosonde auto_rx v1.5.5
KD0ZJV-10U30247492022-12-06 13:06:2539.2996-93.22628221912486Clb=-11.6m/s t=-62.2C h=12.9% p=-1.0hPa 404.001 MHz Type=RS41-NG Radiosonde
KC0BQBU30247492022-12-06 13:06:0739.2987-93.23538221512631Clb=-11.4m/s t=-62.2C h=11.1% p=-1.0hPa 404.000 MHz Type=RS41-NG ser=U3024749 Radiosonde auto_rx v1.5.5
N0GRP-1U30247492022-12-06 13:06:0439.2987-93.2368221312642Clb=-10.5m/s t=-62.3C h=11.0% p=-1.0hPa 404.001 MHz Type=RS41-NG Radiosonde
KD0ZJV-10U30247492022-12-06 13:05:3839.2975-93.24748120912829Clb=-10.9m/s t=-63.0C h=8.9% p=-1.0hPa 404.001 MHz Type=RS41-NG Radiosonde
KC0BQBU30247492022-12-06 13:05:2339.2966-93.25538020712960Clb=-10.5m/s t=-63.2C h=7.5% p=-1.0hPa 404.000 MHz Type=RS41-NG ser=U3024749 Radiosonde auto_rx v1.5.5
N0GRP-1U30247492022-12-06 13:05:1839.2964-93.25678020712982Clb=-11.2m/s t=-63.2C h=7.4% p=-1.0hPa 404.001 MHz Type=RS41-NG Radiosonde
KD0ZJV-10U30247492022-12-06 13:04:5039.295-93.2688121113168Clb=-11.1m/s t=-62.7C h=5.8% p=-1.0hPa 404.001 MHz Type=RS41-NG Radiosonde
KC0BQBU30247492022-12-06 13:04:3439.2941-93.27538021513287Clb=-11.1m/s t=-62.2C h=5.0% p=-1.0hPa 404.000 MHz Type=RS41-NG ser=U3024749 Radiosonde auto_rx v1.5.5
N0GRP-1U30247492022-12-06 13:04:2639.2938-93.27748021513319Clb=-10.8m/s t=-62.3C h=4.9% p=-1.0hPa 404.001 MHz Type=RS41-NG Radiosonde
KD0ZJV-10U30247492022-12-06 13:03:5539.2921-93.28968021113513Clb=-10.9m/s t=-62.0C h=4.4% p=-1.0hPa 404.001 MHz Type=RS41-NG Radiosonde
KC0BQBU30247492022-12-06 13:03:3839.2912-93.29557720713621Clb=-13.6m/s t=-61.9C h=4.0% p=-1.0hPa 404.000 MHz Type=RS41-NG ser=U3024749 Radiosonde auto_rx v1.5.5
N0GRP-1U30247492022-12-06 13:03:2939.2908-93.29817920613678Clb=-14.8m/s t=-62.1C h=4.0% p=-1.0hPa 404.001 MHz Type=RS41-NG Radiosonde
KD0ZJV-10U30247492022-12-06 13:03:0539.2895-93.30988320613908Clb=-12.7m/s t=-62.6C h=4.0% p=-1.0hPa 404.001 MHz Type=RS41-NG Radiosonde
KC0BQBU30247492022-12-06 13:02:5439.2891-93.31518320714003Clb=-11.1m/s t=-62.8C h=3.9% p=-1.0hPa 404.000 MHz Type=RS41-NG ser=U3024749 Radiosonde auto_rx v1.5.5
N0GRP-1U30247492022-12-06 13:02:4639.2887-93.31848220614061Clb=-12.1m/s t=-62.5C h=3.8% p=-1.0hPa 404.001 MHz Type=RS41-NG Radiosonde
KD0ZJV-10U30247492022-12-06 13:02:1839.2876-93.32998219414275Clb=-11.8m/s t=-63.5C h=3.9% p=-1.0hPa 404.001 MHz Type=RS41-NG Radiosonde
KC0BQBU30247492022-12-06 13:02:0739.2871-93.33428119414361Clb=-11.6m/s t=-63.5C h=3.9% p=-1.0hPa 404.000 MHz Type=RS41-NG ser=U3024749 Radiosonde auto_rx v1.5.5
N0GRP-1U30247492022-12-06 13:01:5539.2866-93.33868319614443Clb=-12.1m/s t=-63.8C h=3.9% p=-1.0hPa 404.001 MHz Type=RS41-NG Radiosonde
KD0ZJV-10U30247492022-12-06 13:01:3339.286-93.34988919314661Clb=-12.3m/s t=-63.7C h=4.0% p=-1.0hPa 404.001 MHz Type=RS41-NG Radiosonde
KC0BQBU30247492022-12-06 13:01:2039.286-93.35299119414723Clb=-12.2m/s t=-64.0C h=4.1% p=-1.0hPa 404.000 MHz Type=RS41-NG ser=U3024749 Radiosonde auto_rx v1.5.5
N0GRP-1U30247492022-12-06 13:01:0539.2862-93.35739319114819Clb=-15.7m/s t=-63.8C h=3.9% p=-1.0hPa 404.001 MHz Type=RS41-NG Radiosonde
KD0ZJV-10U30247492022-12-06 13:00:3439.2866-93.36729015915073Clb=-13.9m/s t=-63.0C h=3.7% p=-1.0hPa 404.001 MHz Type=RS41-NG Radiosonde
KC0BQBU30247492022-12-06 13:00:2439.2865-93.36988815615139Clb=-12.9m/s t=-63.3C h=3.8% p=-1.0hPa 404.000 MHz Type=RS41-NG ser=U3024749 Radiosonde auto_rx v1.5.5
N0GRP-1U30247492022-12-06 13:00:0439.2863-93.37388315215242Clb=-12.9m/s t=-63.7C h=4.1% p=-1.0hPa 404.001 MHz Type=RS41-NG Radiosonde
KD0ZJV-10U30247492022-12-06 12:59:3039.2854-93.38248414815477Clb=-13.6m/s t=-64.1C h=4.1% p=-1.0hPa 404.001 MHz Type=RS41-NG Radiosonde
KC0BQBU30247492022-12-06 12:59:2239.2853-93.38438715215529Clb=-12.9m/s t=-64.1C h=4.1% p=-1.0hPa 404.000 MHz Type=RS41-NG ser=U3024749 Radiosonde auto_rx v1.5.5
N0GRP-1U30247492022-12-06 12:58:5939.2851-93.38928815215660Clb=-13.3m/s t=-64.5C h=4.1% p=-1.0hPa 404.001 MHz Type=RS41-NG Radiosonde
KD0ZJV-10U30247492022-12-06 12:58:2439.2849-93.39748714115883Clb=-13.5m/s t=-66.0C h=4.6% p=-1.0hPa 404.001 MHz Type=RS41-NG Radiosonde
KC0BQBU30247492022-12-06 12:58:1939.2849-93.39878614115923Clb=-13.2m/s t=-66.2C h=4.7% p=-1.0hPa 404.000 MHz Type=RS41-NG ser=U3024749 Radiosonde auto_rx v1.5.5
N0GRP-1U30247492022-12-06 12:57:5239.2847-93.40379114116068Clb=-13.3m/s t=-66.0C h=4.8% p=-1.0hPa 404.001 MHz Type=RS41-NG Radiosonde
KD0ZJV-10U30247492022-12-06 12:57:2039.2851-93.41069410416295Clb=-14.5m/s t=-64.3C h=4.1% p=-1.0hPa 404.001 MHz Type=RS41-NG Radiosonde
KC0BQBU30247492022-12-06 12:57:1739.2851-93.41139410216322Clb=-14.2m/s t=-64.3C h=4.1% p=-1.0hPa 404.000 MHz Type=RS41-NG ser=U3024749 Radiosonde auto_rx v1.5.5
N0GRP-1U30247492022-12-06 12:56:5439.2854-93.4151959616488Clb=-15.3m/s t=-65.6C h=4.2% p=-1.0hPa 404.001 MHz Type=RS41-NG Radiosonde
KD0ZJV-10U30247492022-12-06 12:56:2639.2854-93.4205838516768Clb=-17.2m/s t=-66.9C h=4.2% p=-1.0hPa 404.001 MHz Type=RS41-NG Radiosonde
KC0BQBU30247492022-12-06 12:56:2539.2854-93.4205838516768Clb=-17.2m/s t=-66.9C h=4.2% p=-1.0hPa 404.000 MHz Type=RS41-NG ser=U3024749 Radiosonde auto_rx v1.5.5
N0GRP-1U30247492022-12-06 12:56:0339.2849-93.4237718716965Clb=-17.6m/s t=-67.2C h=4.1% p=-1.0hPa 404.001 MHz Type=RS41-NG Radiosonde
KC0BQBU30247492022-12-06 12:55:3239.2831-93.42866510717259Clb=-15.0m/s t=-68.2C h=4.2% p=-1.0hPa 404.000 MHz Type=RS41-NG ser=U3024749 Radiosonde auto_rx v1.5.5
KD0ZJV-10U30247492022-12-06 12:55:3039.2831-93.42866510717259Clb=-15.0m/s t=-68.2C h=4.2% p=-1.0hPa 404.001 MHz Type=RS41-NG Radiosonde
N0GRP-1U30247492022-12-06 12:55:0239.2817-93.43347010417476Clb=-17.1m/s t=-68.7C h=4.3% p=-1.0hPa 404.001 MHz Type=RS41-NG Radiosonde
KC0BQBU30247492022-12-06 12:54:3639.2805-93.43847210017763Clb=-17.7m/s t=-67.7C h=4.0% p=-1.0hPa 404.000 MHz Type=RS41-NG ser=U3024749 Radiosonde auto_rx v1.5.5
KD0ZJV-10U30247492022-12-06 12:54:3239.2804-93.4388729617781Clb=-19.1m/s t=-67.7C h=3.9% p=-1.0hPa 404.001 MHz Type=RS41-NG Radiosonde
N0GRP-1U30247492022-12-06 12:54:1039.2795-93.4427728918040Clb=-19.2m/s t=-66.1C h=3.4% p=-1.0hPa 404.001 MHz Type=RS41-NG Radiosonde
KC0BQBU30247492022-12-06 12:53:4539.2786-93.4467747418324Clb=-18.8m/s t=-65.3C h=3.1% p=-1.0hPa 404.000 MHz Type=RS41-NG ser=U3024749 Radiosonde auto_rx v1.5.5
KD0ZJV-10U30247492022-12-06 12:53:3939.2785-93.4471777218362Clb=-19.1m/s t=-65.3C h=3.0% p=-1.0hPa 404.001 MHz Type=RS41-NG Radiosonde
N0GRP-1U30247492022-12-06 12:53:1439.2784-93.4506978318636Clb=-19.8m/s t=-66.4C h=3.1% p=-1.0hPa 404.001 MHz Type=RS41-NG Radiosonde
KC0BQBU30247492022-12-06 12:52:5239.279-93.4541036118916Clb=-19.9m/s t=-67.1C h=3.1% p=-1.0hPa 404.000 MHz Type=RS41-NG ser=U3024749 Radiosonde auto_rx v1.5.5
KD0ZJV-10U30247492022-12-06 12:52:4339.2792-93.45491015719016Clb=-20.9m/s t=-66.7C h=3.0% p=-1.0hPa 404.001 MHz Type=RS41-NG Radiosonde
N0GRP-1U30247492022-12-06 12:52:1339.2798-93.4589915219435Clb=-20.4m/s t=-67.7C h=2.9% p=-1.0hPa 404.001 MHz Type=RS41-NG Radiosonde
KC0BQBU30247492022-12-06 12:51:4539.2798-93.4596865419516Clb=-20.2m/s t=-67.7C h=2.9% p=-1.0hPa 404.000 MHz Type=RS41-NG ser=U3024749 Radiosonde auto_rx v1.5.5
KD0ZJV-10U30247492022-12-06 12:51:3739.2797-93.4606785219639Clb=-21.0m/s t=-68.3C h=3.0% p=-1.0hPa 404.001 MHz Type=RS41-NG Radiosonde
N0GRP-1U30247492022-12-06 12:51:1039.2793-93.4628796519886Clb=-21.0m/s t=-68.7C h=3.2% p=-1.0hPa 404.001 MHz Type=RS41-NG Radiosonde
KC0BQBU30247492022-12-06 12:50:5339.279-93.4657838120138Clb=-19.2m/s t=-68.4C h=3.5% p=-1.0hPa 404.000 MHz Type=RS41-NG ser=U3024749 Radiosonde auto_rx v1.5.5
KD0ZJV-10U30247492022-12-06 12:50:3939.2789-93.4671838320233Clb=-19.3m/s t=-68.0C h=3.5% p=-1.0hPa 404.001 MHz Type=RS41-NG Radiosonde
N0GRP-1U30247492022-12-06 12:50:1039.2785-93.4704816320512Clb=-20.6m/s t=-61.7C h=1.9% p=-1.0hPa 404.001 MHz Type=RS41-NG Radiosonde
KC0BQBU30247492022-12-06 12:49:5039.2782-93.4726785920745Clb=-21.6m/s t=-63.6C h=2.3% p=-1.0hPa 404.000 MHz Type=RS41-NG ser=U3024749 Radiosonde auto_rx v1.5.5
KD0ZJV-10U30247492022-12-06 12:49:3539.278-93.4737786320875Clb=-22.1m/s t=-63.8C h=2.2% p=-1.0hPa 404.001 MHz Type=RS41-NG Radiosonde
N0GRP-1U30247492022-12-06 12:49:0439.2782-93.47631184321210Clb=-17.1m/s t=-64.3C h=2.2% p=-1.0hPa 404.001 MHz Type=RS41-NG Radiosonde
KC0BQBU30247492022-12-06 12:48:4739.2787-93.47721133321349Clb=-16.9m/s t=-64.8C h=2.3% p=-1.0hPa 404.000 MHz Type=RS41-NG ser=U3024749 Radiosonde auto_rx v1.5.5
KD0ZJV-10U30247492022-12-06 12:48:3039.2788-93.4779943521467Clb=-17.2m/s t=-65.2C h=2.4% p=-1.0hPa 404.001 MHz Type=RS41-NG Radiosonde
N0GRP-1U30247492022-12-06 12:48:0039.2787-93.4804886921709Clb=-17.7m/s t=-64.6C h=2.4% p=-1.0hPa 404.001 MHz Type=RS41-NG Radiosonde
KC0BQBU30247492022-12-06 12:47:4539.2788-93.4825886521871Clb=-18.0m/s t=-63.2C h=2.1% p=-1.0hPa 404.000 MHz Type=RS41-NG ser=U3024749 Radiosonde auto_rx v1.5.5
KD0ZJV-10U30247492022-12-06 12:47:2339.2787-93.484835222013Clb=-18.0m/s t=-62.3C h=1.9% p=-1.0hPa 404.001 MHz Type=RS41-NG Radiosonde
N0GRP-1U30247492022-12-06 12:46:5739.2782-93.486644122268Clb=-17.8m/s t=-63.1C h=2.1% p=-1.0hPa 404.001 MHz Type=RS41-NG Radiosonde
KC0BQBU30247492022-12-06 12:46:4639.2779-93.4871665222415Clb=-18.4m/s t=-63.0C h=2.0% p=-1.0hPa 404.000 MHz Type=RS41-NG ser=U3024749 Radiosonde auto_rx v1.5.5
KD0ZJV-10U30247492022-12-06 12:46:2739.2774-93.4892716522643Clb=-19.4m/s t=-62.3C h=1.8% p=-1.0hPa 404.001 MHz Type=RS41-NG Radiosonde
N0GRP-1U30247492022-12-06 12:45:5939.2769-93.4915875022897Clb=-20.0m/s t=-63.2C h=1.9% p=-1.0hPa 404.001 MHz Type=RS41-NG Radiosonde
KC0BQBU30247492022-12-06 12:45:4839.277-93.4922994622998Clb=-19.9m/s t=-63.7C h=2.0% p=-1.0hPa 404.000 MHz Type=RS41-NG ser=U3024749 Radiosonde auto_rx v1.5.5
KD0ZJV-10U30247492022-12-06 12:45:2439.2773-93.49381054123221Clb=-20.9m/s t=-64.0C h=2.2% p=-1.0hPa 404.001 MHz Type=RS41-NG Radiosonde
N0GRP-1U30247492022-12-06 12:44:5439.2775-93.4955834623490Clb=-20.8m/s t=-63.1C h=2.0% p=-1.0hPa 404.001 MHz Type=RS41-NG Radiosonde
KC0BQBU30247492022-12-06 12:44:4439.2773-93.4965735723618Clb=-21.5m/s t=-62.2C h=1.9% p=-1.0hPa 404.000 MHz Type=RS41-NG ser=U3024749 Radiosonde auto_rx v1.5.5
KD0ZJV-10U30247492022-12-06 12:44:2139.2766-93.4988646923901Clb=-27.0m/s t=-62.1C h=1.9% p=-1.0hPa 404.001 MHz Type=RS41-NG Radiosonde
N0GRP-1U30247492022-12-06 12:43:5939.276-93.5017886124309Clb=-30.1m/s t=-60.9C h=1.8% p=-1.0hPa 404.001 MHz Type=RS41-NG Radiosonde
KD0ZJV-10U30247492022-12-06 12:43:5639.2764-93.50491015624855Clb=-27.8m/s t=-60.3C h=1.7% p=-1.0hPa 404.001 MHz Type=RS41-NG Radiosonde
N0GRP-1U30247492022-12-06 12:43:5139.2766-93.50731015625275Clb=-30.5m/s t=-59.7C h=1.7% p=-1.0hPa 404.001 MHz Type=RS41-NG Radiosonde
KD0ZJV-10U30247492022-12-06 12:43:5039.2769-93.5109966725925Clb=-37.1m/s t=-58.8C h=1.7% p=-1.0hPa 404.001 MHz Type=RS41-NG Radiosonde
N0GRP-1U30247492022-12-06 12:43:4939.2773-93.51341086126376Clb=-40.6m/s t=-55.4C h=1.3% p=-1.0hPa 404.001 MHz Type=RS41-NG Radiosonde
KD0ZJV-10U30247492022-12-06 12:43:4639.2781-93.518987827054Clb=-20.5m/s t=-54.6C h=1.2% p=-1.0hPa 404.001 MHz Type=RS41-NG Radiosonde
N0GRP-1U30247492022-12-06 12:43:4139.2786-93.5209997827223Clb=-14.1m/s t=-54.9C h=1.2% p=-1.0hPa 404.001 MHz Type=RS41-NG Radiosonde
KD0ZJV-10U30247492022-12-06 12:43:3239.2793-93.52531007427469Clb=-13.2m/s t=-55.7C h=1.4% p=-1.0hPa 404.001 MHz Type=RS41-NG Radiosonde
N0GRP-1U30247492022-12-06 12:43:2439.2797-93.5287957827707Clb=-40.7m/s t=-54.4C h=1.3% p=-1.0hPa 404.001 MHz Type=RS41-NG Radiosonde
KD0ZJV-10U30247492022-12-06 12:43:1039.2799-93.5334869128392Clb=-44.0m/s t=-53.9C h=1.2% p=-1.0hPa 404.001 MHz Type=RS41-NG Radiosonde
KC0BQBU30247492022-12-06 12:42:5839.2794-93.5372759128969Clb=-40.3m/s t=-53.6C h=1.2% p=-1.0hPa 404.000 MHz Type=RS41-NG ser=U3024749 Radiosonde auto_rx v1.5.5
N0GRP-1U30247492022-12-06 12:42:5539.2791-93.5398310229227Clb=-43.8m/s t=-54.3C h=1.2% p=-1.0hPa 404.001 MHz Type=RS41-NG Radiosonde
KD0ZJV-10U30247492022-12-06 12:42:2939.2787-93.54397911929780Clb=-33.5m/s t=-54.9C h=1.3% p=-1.0hPa 404.001 MHz Type=RS41-NG Radiosonde
KC0BQBU30247492022-12-06 12:42:0639.2782-93.5486610730026Clb=-20.1m/s t=-55.1C h=1.3% p=-1.0hPa 404.000 MHz Type=RS41-NG ser=U3024749 Radiosonde auto_rx v1.5.5
N0GRP-1U30247492022-12-06 12:42:0439.2782-93.54921009430109Clb=-16.2m/s t=-55.0C h=1.3% p=-1.0hPa 404.001 MHz Type=RS41-NG Radiosonde
KD0ZJV-10U30247492022-12-06 12:41:5939.2783-93.55489913730422Clb=-20.9m/s t=-54.5C h=1.3% p=-1.0hPa 404.001 MHz Type=RS41-NG Radiosonde
N0GRP-1U30247492022-12-06 12:41:5739.2789-93.56248114130812Clb=-25.0m/s t=-53.5C h=1.3% p=-1.0hPa 404.001 MHz Type=RS41-NG Radiosonde
KD0ZJV-10U30247492022-12-06 12:41:5539.2788-93.56929214831268Clb=-39.4m/s t=-52.1C h=1.2% p=-1.0hPa 404.001 MHz Type=RS41-NG Radiosonde
KC0BQBU30247492022-12-06 12:41:5339.279-93.573810516331609Clb=-11.7m/s t=-51.1C h=1.0% p=-1.0hPa 404.000 MHz Type=RS41-NG ser=U3024749 Radiosonde auto_rx v1.5.5
KD0ZJV-10U30247492022-12-06 12:41:5139.2797-93.583810014631500Clb=2.8m/s t=-52.3C h=1.1% p=-1.0hPa 404.001 MHz Type=RS41-NG Radiosonde
N0GRP-1U30247492022-12-06 12:41:5039.2797-93.59039114631413Clb=8.8m/s t=-52.1C h=1.1% p=-1.0hPa 404.001 MHz Type=RS41-NG Radiosonde
KD0ZJV-10U30247492022-12-06 12:41:4939.2797-93.59799212231300Clb=8.0m/s t=-52.8C h=1.1% p=-1.0hPa 404.001 MHz Type=RS41-NG Radiosonde
N0GRP-1U30247492022-12-06 12:41:4839.2794-93.6068113131173Clb=7.8m/s t=-53.2C h=1.1% p=-1.0hPa 404.001 MHz Type=RS41-NG Radiosonde
KD0ZJV-10U30247492022-12-06 12:41:4739.2792-93.61179812431076Clb=2.8m/s t=-53.6C h=1.2% p=-1.0hPa 404.001 MHz Type=RS41-NG Radiosonde
N0GRP-1U30247492022-12-06 12:41:4639.2791-93.61687915430991Clb=9.2m/s t=-53.3C h=1.1% p=-1.0hPa 404.001 MHz Type=RS41-NG Radiosonde
KD0ZJV-10U30247492022-12-06 12:41:4239.2792-93.6258315730859Clb=6.0m/s t=-52.9C h=1.1% p=-1.0hPa 404.001 MHz Type=RS41-NG Radiosonde
KC0BQBU30247492022-12-06 12:41:4039.2793-93.627310313930825Clb=3.3m/s t=-53.1C h=1.1% p=-1.0hPa 404.000 MHz Type=RS41-NG ser=U3024749 Radiosonde auto_rx v1.5.5
N0GRP-1U30247492022-12-06 12:41:2939.2795-93.632110414830755Clb=2.6m/s t=-53.6C h=1.2% p=-1.0hPa 404.001 MHz Type=RS41-NG Radiosonde
KD0ZJV-10U30247492022-12-06 12:41:1039.2799-93.639610712830636Clb=7.2m/s t=-53.5C h=1.2% p=-1.0hPa 404.001 MHz Type=RS41-NG Radiosonde
KC0BQBU30247492022-12-06 12:41:0739.2803-93.64159115930610Clb=6.4m/s t=-53.3C h=1.2% p=-1.0hPa 404.000 MHz Type=RS41-NG ser=U3024749 Radiosonde auto_rx v1.5.5
N0GRP-1U30247492022-12-06 12:40:5239.2806-93.64558616130544Clb=11.7m/s t=-52.9C h=1.1% p=-1.0hPa 404.001 MHz Type=RS41-NG Radiosonde
KD0ZJV-10U30247492022-12-06 12:40:2139.2815-93.65379214630419Clb=7.1m/s t=-53.9C h=1.2% p=-1.0hPa 404.001 MHz Type=RS41-NG Radiosonde
KC0BQBU30247492022-12-06 12:40:1439.2816-93.65510012030399Clb=9.4m/s t=-53.8C h=1.2% p=-1.0hPa 404.000 MHz Type=RS41-NG ser=U3024749 Radiosonde auto_rx v1.5.5
N0GRP-1U30247492022-12-06 12:39:5039.2821-93.659411212230327Clb=6.1m/s t=-54.1C h=1.2% p=-1.0hPa 404.001 MHz Type=RS41-NG Radiosonde
KD0ZJV-10U30247492022-12-06 12:39:1539.2826-93.667210911730208Clb=6.4m/s t=-54.8C h=1.3% p=-1.0hPa 404.001 MHz Type=RS41-NG Radiosonde
KC0BQBU30247492022-12-06 12:39:1139.2828-93.66878313930183Clb=9.5m/s t=-54.8C h=1.3% p=-1.0hPa 404.000 MHz Type=RS41-NG ser=U3024749 Radiosonde auto_rx v1.5.5
N0GRP-1U30247492022-12-06 12:38:4339.2828-93.67228214130122Clb=6.4m/s t=-54.5C h=1.2% p=-1.0hPa 404.001 MHz Type=RS41-NG Radiosonde
KC0BQBU30247492022-12-06 12:38:0539.2823-93.67948613529998Clb=5.8m/s t=-54.6C h=1.2% p=-1.0hPa 404.000 MHz Type=RS41-NG ser=U3024749 Radiosonde auto_rx v1.5.5
N0GRP-1U30247492022-12-06 12:37:3239.2822-93.68379911329919Clb=4.8m/s t=-54.3C h=1.2% p=-1.0hPa 404.001 MHz Type=RS41-NG Radiosonde
KC0BQBU30247492022-12-06 12:36:5339.2821-93.69068914329804Clb=0.8m/s t=-54.8C h=1.2% p=-1.0hPa 404.000 MHz Type=RS41-NG ser=U3024749 Radiosonde auto_rx v1.5.5
KD0ZJV-10U30247492022-12-06 12:36:5139.2821-93.691510212229792Clb=9.4m/s t=-54.8C h=1.2% p=-1.0hPa 404.001 MHz Type=RS41-NG Radiosonde
N0GRP-1U30247492022-12-06 12:36:2239.2822-93.69531059429721Clb=4.7m/s t=-55.0C h=1.3% p=-1.0hPa 404.001 MHz Type=RS41-NG Radiosonde
KC0BQBU30247492022-12-06 12:35:4739.2823-93.7007908929613Clb=6.9m/s t=-55.0C h=1.3% p=-1.0hPa 404.000 MHz Type=RS41-NG ser=U3024749 Radiosonde auto_rx v1.5.5
KD0ZJV-10U30247492022-12-06 12:35:4339.2823-93.7018410229605Clb=8.4m/s t=-55.0C h=1.3% p=-1.0hPa 404.001 MHz Type=RS41-NG Radiosonde
N0GRP-1U30247492022-12-06 12:35:0739.2823-93.70578911129512Clb=8.5m/s t=-54.6C h=1.2% p=-1.0hPa 404.001 MHz Type=RS41-NG Radiosonde
KC0BQBU30247492022-12-06 12:34:4239.282-93.711929329415Clb=6.1m/s t=-55.5C h=1.3% p=-1.0hPa 404.000 MHz Type=RS41-NG ser=U3024749 Radiosonde auto_rx v1.5.5
KD0ZJV-10U30247492022-12-06 12:34:1939.282-93.71178611929401Clb=6.6m/s t=-55.5C h=1.3% p=-1.0hPa 404.001 MHz Type=RS41-NG Radiosonde
N0GRP-1U30247492022-12-06 12:33:4539.2816-93.7166769329304Clb=8.1m/s t=-55.2C h=1.4% p=-1.0hPa 404.001 MHz Type=RS41-NG Radiosonde
KC0BQBU30247492022-12-06 12:33:1339.2809-93.7202799329219Clb=5.8m/s t=-54.5C h=1.3% p=-1.0hPa 404.000 MHz Type=RS41-NG ser=U3024749 Radiosonde auto_rx v1.5.5
KD0ZJV-10U30247492022-12-06 12:33:0039.2806-93.7215758929193Clb=6.1m/s t=-54.3C h=1.3% p=-1.0hPa 404.001 MHz Type=RS41-NG Radiosonde
KD0ZJV-10U30247492022-12-06 12:32:1439.2893-93.8737885425257Clb=4.7m/s t=-60.0C h=1.7% p=-1.0hPa 404.001 MHz Type=RS41-NG Radiosonde
KC0BQBU30247492022-12-06 12:32:0139.2892-93.8744975925230Clb=7.8m/s t=-59.9C h=1.6% p=-1.0hPa 404.000 MHz Type=RS41-NG ser=U3024749 Radiosonde auto_rx v1.5.5
N0GRP-1U30247492022-12-06 12:31:3839.2893-93.8757943725186Clb=6.1m/s t=-59.7C h=1.5% p=-1.0hPa 404.001 MHz Type=RS41-NG Radiosonde
KD0ZJV-10U30247492022-12-06 12:30:5939.2894-93.8786656325094Clb=5.5m/s t=-61.0C h=1.6% p=-1.0hPa 404.001 MHz Type=RS41-NG Radiosonde
KC0BQBU30247492022-12-06 12:30:4939.2893-93.87921024425066Clb=5.5m/s t=-61.3C h=1.7% p=-1.0hPa 404.000 MHz Type=RS41-NG ser=U3024749 Radiosonde auto_rx v1.5.5
N0GRP-1U30247492022-12-06 12:30:2539.2894-93.881974625007Clb=2.2m/s t=-61.8C h=1.8% p=-1.0hPa 404.001 MHz Type=RS41-NG Radiosonde
KD0ZJV-10U30247492022-12-06 12:29:4439.2898-93.8841036924921Clb=3.7m/s t=-61.3C h=1.7% p=-1.0hPa 404.001 MHz Type=RS41-NG Radiosonde
KC0BQBU30247492022-12-06 12:29:3839.2898-93.8845894624904Clb=3.9m/s t=-61.3C h=1.7% p=-1.0hPa 404.000 MHz Type=RS41-NG ser=U3024749 Radiosonde auto_rx v1.5.5
N0GRP-1U30247492022-12-06 12:29:1439.29-93.8868905924846Clb=6.6m/s t=-61.2C h=1.7% p=-1.0hPa 404.001 MHz Type=RS41-NG Radiosonde
KD0ZJV-10U30247492022-12-06 12:28:3439.2902-93.89011037824752Clb=6.7m/s t=-62.5C h=1.8% p=-1.0hPa 404.001 MHz Type=RS41-NG Radiosonde
KC0BQBU30247492022-12-06 12:28:3039.2903-93.89051036324742Clb=6.3m/s t=-62.5C h=1.8% p=-1.0hPa 404.000 MHz Type=RS41-NG ser=U3024749 Radiosonde auto_rx v1.5.5
N0GRP-1U30247492022-12-06 12:28:0139.2907-93.89251026524679Clb=5.6m/s t=-62.5C h=1.8% p=-1.0hPa 404.001 MHz Type=RS41-NG Radiosonde
KD0ZJV-10U30247492022-12-06 12:27:2639.2911-93.89571105424577Clb=5.6m/s t=-62.5C h=1.9% p=-1.0hPa 404.001 MHz Type=RS41-NG Radiosonde
KC0BQBU30247492022-12-06 12:27:2339.2912-93.89591055424572Clb=5.7m/s t=-62.5C h=1.9% p=-1.0hPa 404.000 MHz Type=RS41-NG ser=U3024749 Radiosonde auto_rx v1.5.5
N0GRP-1U30247492022-12-06 12:26:5639.2913-93.89821016524495Clb=5.9m/s t=-62.7C h=1.9% p=-1.0hPa 404.001 MHz Type=RS41-NG Radiosonde
KD0ZJV-10U30247492022-12-06 12:26:2139.2914-93.9017894424387Clb=5.6m/s t=-62.0C h=1.9% p=-1.0hPa 404.001 MHz Type=RS41-NG Radiosonde
N0GRP-1U30247492022-12-06 12:25:4939.2911-93.9047976724297Clb=5.6m/s t=-61.4C h=1.7% p=-1.0hPa 404.001 MHz Type=RS41-NG Radiosonde
KC0BQBU30247492022-12-06 12:25:1439.2907-93.9081677624202Clb=8.3m/s t=-62.3C h=1.9% p=-1.0hPa 404.000 MHz Type=RS41-NG ser=U3024749 Radiosonde auto_rx v1.5.5
KD0ZJV-10U30247492022-12-06 12:25:1139.2906-93.9083688324195Clb=7.2m/s t=-62.3C h=1.9% p=-1.0hPa 404.001 MHz Type=RS41-NG Radiosonde
N0GRP-1U30247492022-12-06 12:24:3439.2895-93.9113637224101Clb=5.8m/s t=-61.9C h=1.8% p=-1.0hPa 404.001 MHz Type=RS41-NG Radiosonde
KC0BQBU30247492022-12-06 12:23:5939.2884-93.9142667224016Clb=4.8m/s t=-62.8C h=1.9% p=-1.0hPa 404.000 MHz Type=RS41-NG ser=U3024749 Radiosonde auto_rx v1.5.5
KD0ZJV-10U30247492022-12-06 12:23:5339.2882-93.9146556524004Clb=7.5m/s t=-62.8C h=1.9% p=-1.0hPa 404.001 MHz Type=RS41-NG Radiosonde
N0GRP-1U30247492022-12-06 12:23:2339.2869-93.9171497223920Clb=6.2m/s t=-62.6C h=1.9% p=-1.0hPa 404.001 MHz Type=RS41-NG Radiosonde
KC0BQBU30247492022-12-06 12:22:4839.2856-93.9199637223838Clb=4.6m/s t=-62.5C h=1.9% p=-1.0hPa 404.000 MHz Type=RS41-NG ser=U3024749 Radiosonde auto_rx v1.5.5
KD0ZJV-10U30247492022-12-06 12:22:3939.2854-93.9204715223819Clb=4.6m/s t=-62.4C h=1.9% p=-1.0hPa 404.001 MHz Type=RS41-NG Radiosonde
N0GRP-1U30247492022-12-06 12:22:0539.2845-93.9237655723717Clb=5.2m/s t=-62.6C h=2.0% p=-1.0hPa 404.001 MHz Type=RS41-NG Radiosonde
KC0BQBU30247492022-12-06 12:21:3639.284-93.9252845723665Clb=4.6m/s t=-62.3C h=1.9% p=-1.0hPa 404.000 MHz Type=RS41-NG ser=U3024749 Radiosonde auto_rx v1.5.5
KD0ZJV-10U30247492022-12-06 12:21:2339.2838-93.9262825623629Clb=5.2m/s t=-62.3C h=1.9% p=-1.0hPa 404.001 MHz Type=RS41-NG Radiosonde
N0GRP-1U30247492022-12-06 12:20:4639.2834-93.9282804123550Clb=7.3m/s t=-62.4C h=1.9% p=-1.0hPa 404.001 MHz Type=RS41-NG Radiosonde
KC0BQBU30247492022-12-06 12:20:1739.2833-93.9299985023477Clb=5.3m/s t=-62.7C h=1.9% p=-1.0hPa 404.000 MHz Type=RS41-NG ser=U3024749 Radiosonde auto_rx v1.5.5
KD0ZJV-10U30247492022-12-06 12:19:4639.2833-93.93061143723445Clb=5.3m/s t=-62.7C h=1.9% p=-1.0hPa 404.001 MHz Type=RS41-NG Radiosonde
N0GRP-1U30247492022-12-06 12:18:5639.2836-93.9327913323349Clb=6.4m/s t=-63.3C h=2.0% p=-1.0hPa 404.001 MHz Type=RS41-NG Radiosonde
KC0BQBU30247492022-12-06 12:18:3239.2841-93.93421294823284Clb=5.9m/s t=-63.5C h=2.0% p=-1.0hPa 404.000 MHz Type=RS41-NG ser=U3024749 Radiosonde auto_rx v1.5.5
KD0ZJV-10U30247492022-12-06 12:18:1239.2844-93.9351205923243Clb=5.7m/s t=-63.3C h=2.1% p=-1.0hPa 404.001 MHz Type=RS41-NG Radiosonde
N0GRP-1U30247492022-12-06 12:17:4239.2853-93.93721106323148Clb=7.6m/s t=-63.4C h=2.0% p=-1.0hPa 404.001 MHz Type=RS41-NG Radiosonde
KC0BQBU30247492022-12-06 12:17:2239.2858-93.93881206723082Clb=6.7m/s t=-63.2C h=2.0% p=-1.0hPa 404.000 MHz Type=RS41-NG ser=U3024749 Radiosonde auto_rx v1.5.5
KD0ZJV-10U30247492022-12-06 12:17:0539.2862-93.941187023036Clb=7.6m/s t=-62.8C h=2.0% p=-1.0hPa 404.001 MHz Type=RS41-NG Radiosonde
N0GRP-1U30247492022-12-06 12:16:3639.2868-93.94251085722946Clb=6.0m/s t=-62.6C h=2.0% p=-1.0hPa 404.001 MHz Type=RS41-NG Radiosonde
KC0BQBU30247492022-12-06 12:16:2439.2872-93.9439956122892Clb=7.5m/s t=-62.5C h=2.0% p=-1.0hPa 404.000 MHz Type=RS41-NG ser=U3024749 Radiosonde auto_rx v1.5.5
KD0ZJV-10U30247492022-12-06 12:16:0039.2873-93.9453994422843Clb=4.5m/s t=-62.6C h=2.0% p=-1.0hPa 404.001 MHz Type=RS41-NG Radiosonde
N0GRP-1U30247492022-12-06 12:15:5939.2872-93.9476666322759Clb=5.9m/s t=-62.6C h=2.0% p=-1.0hPa 404.001 MHz Type=RS41-NG Radiosonde
KC0BQBU30247492022-12-06 12:15:5839.2871-93.949806122711Clb=4.6m/s t=-62.4C h=2.0% p=-1.0hPa 404.000 MHz Type=RS41-NG ser=U3024749 Radiosonde auto_rx v1.5.5
KD0ZJV-10U30247492022-12-06 12:15:5739.2866-93.9509755622651Clb=5.2m/s t=-62.3C h=2.0% p=-1.0hPa 404.001 MHz Type=RS41-NG Radiosonde
N0GRP-1U30247492022-12-06 12:15:5639.286-93.9535786722578Clb=7.4m/s t=-62.5C h=2.1% p=-1.0hPa 404.001 MHz Type=RS41-NG Radiosonde
KC0BQBU30247492022-12-06 12:15:5539.2858-93.9548855622535Clb=7.6m/s t=-62.4C h=2.1% p=-1.0hPa 404.000 MHz Type=RS41-NG ser=U3024749 Radiosonde auto_rx v1.5.5
KD0ZJV-10U30247492022-12-06 12:15:5439.2855-93.9565765922474Clb=6.1m/s t=-62.1C h=2.1% p=-1.0hPa 404.001 MHz Type=RS41-NG Radiosonde
N0GRP-1U30247492022-12-06 12:15:5339.2852-93.9584623922402Clb=5.3m/s t=-62.1C h=2.1% p=-1.0hPa 404.001 MHz Type=RS41-NG Radiosonde
KC0BQBU30247492022-12-06 12:15:5239.285-93.95891014422375Clb=4.3m/s t=-61.9C h=2.0% p=-1.0hPa 404.000 MHz Type=RS41-NG ser=U3024749 Radiosonde auto_rx v1.5.5
KD0ZJV-10U30247492022-12-06 12:15:5039.2848-93.9604783522319Clb=5.5m/s t=-62.1C h=2.1% p=-1.0hPa 404.001 MHz Type=RS41-NG Radiosonde
N0GRP-1U30247492022-12-06 12:15:4939.2844-93.9622903522242Clb=5.1m/s t=-63.1C h=2.2% p=-1.0hPa 404.001 MHz Type=RS41-NG Radiosonde
KD0ZJV-10U30247492022-12-06 12:15:4739.2842-93.9657846122142Clb=7.8m/s t=-64.9C h=2.5% p=-1.0hPa 404.001 MHz Type=RS41-NG Radiosonde
N0GRP-1U30247492022-12-06 12:15:4639.284-93.9686887022072Clb=4.6m/s t=-64.9C h=2.3% p=-1.0hPa 404.001 MHz Type=RS41-NG Radiosonde
KD0ZJV-10U30247492022-12-06 12:15:4439.2838-93.973917821976Clb=7.0m/s t=-66.6C h=2.7% p=-1.0hPa 404.001 MHz Type=RS41-NG Radiosonde
N0GRP-1U30247492022-12-06 12:15:3039.2838-93.9764906721899Clb=6.7m/s t=-66.5C h=2.5% p=-1.0hPa 404.001 MHz Type=RS41-NG Radiosonde
KC0BQBU30247492022-12-06 12:15:2939.2837-93.9768777221888Clb=5.8m/s t=-66.6C h=2.6% p=-1.0hPa 404.000 MHz Type=RS41-NG ser=U3024749 Radiosonde auto_rx v1.5.5
KD0ZJV-10U30247492022-12-06 12:15:2039.2834-93.9801865621806Clb=5.5m/s t=-67.1C h=2.7% p=-1.0hPa 404.001 MHz Type=RS41-NG Radiosonde
N0GRP-1U30247492022-12-06 12:15:0339.2833-93.9826814121718Clb=4.4m/s t=-67.0C h=2.6% p=-1.0hPa 404.001 MHz Type=RS41-NG Radiosonde
KD0ZJV-10U30247492022-12-06 12:14:3939.2831-93.9846722421615Clb=4.7m/s t=-66.4C h=2.6% p=-1.0hPa 404.001 MHz Type=RS41-NG Radiosonde
KC0BQBU30247492022-12-06 12:14:1339.2832-93.986743121542Clb=5.5m/s t=-65.8C h=2.5% p=-1.0hPa 404.000 MHz Type=RS41-NG ser=U3024749 Radiosonde auto_rx v1.5.5
N0GRP-1U30247492022-12-06 12:14:0639.2832-93.986743121542Clb=5.5m/s t=-65.8C h=2.5% p=-1.0hPa 404.001 MHz Type=RS41-NG Radiosonde
KD0ZJV-10U30247492022-12-06 12:13:3239.2837-93.98771164621445Clb=5.7m/s t=-65.7C h=2.5% p=-1.0hPa 404.001 MHz Type=RS41-NG Radiosonde
KC0BQBU30247492022-12-06 12:13:0239.2842-93.9891932021374Clb=4.4m/s t=-65.2C h=2.4% p=-1.0hPa 404.000 MHz Type=RS41-NG ser=U3024749 Radiosonde auto_rx v1.5.5
N0GRP-1U30247492022-12-06 12:12:5839.2842-93.98921091721369Clb=5.6m/s t=-65.2C h=2.5% p=-1.0hPa 404.001 MHz Type=RS41-NG Radiosonde
KD0ZJV-10U30247492022-12-06 12:12:2039.285-93.9911895021273Clb=7.3m/s t=-64.7C h=2.3% p=-1.0hPa 404.001 MHz Type=RS41-NG Radiosonde
KC0BQBU30247492022-12-06 12:11:5439.2853-93.99251092821203Clb=2.6m/s t=-64.5C h=2.4% p=-1.0hPa 404.000 MHz Type=RS41-NG ser=U3024749 Radiosonde auto_rx v1.5.5
N0GRP-1U30247492022-12-06 12:11:4739.2853-93.9928875021192Clb=7.7m/s t=-64.4C h=2.3% p=-1.0hPa 404.001 MHz Type=RS41-NG Radiosonde
KD0ZJV-10U30247492022-12-06 12:11:0839.2852-93.9953904321088Clb=5.7m/s t=-64.0C h=2.3% p=-1.0hPa 404.001 MHz Type=RS41-NG Radiosonde
KC0BQBU30247492022-12-06 12:10:4239.2851-93.9968764321036Clb=7.0m/s t=-63.8C h=2.4% p=-1.0hPa 404.000 MHz Type=RS41-NG ser=U3024749 Radiosonde auto_rx v1.5.5
N0GRP-1U30247492022-12-06 12:10:3239.285-93.9973835221018Clb=6.2m/s t=-63.7C h=2.4% p=-1.0hPa 404.001 MHz Type=RS41-NG Radiosonde
N0GRP-1U30247492022-12-06 12:10:1739.2714-94.15136810217376Clb=6.1m/s t=-68.1C h=5.1% p=-1.0hPa 404.001 MHz Type=RS41-NG Radiosonde
KC0BQBU30247492022-12-06 12:10:0239.2709-94.15297011517351Clb=5.5m/s t=-68.1C h=5.0% p=-1.0hPa 404.000 MHz Type=RS41-NG ser=U3024749 Radiosonde auto_rx v1.5.5
KD0ZJV-10U30247492022-12-06 12:09:2739.2697-94.15687910617276Clb=5.4m/s t=-67.5C h=4.8% p=-1.0hPa 404.001 MHz Type=RS41-NG Radiosonde
N0GRP-1U30247492022-12-06 12:08:5239.2683-94.161698917192Clb=6.3m/s t=-67.0C h=4.7% p=-1.0hPa 404.001 MHz Type=RS41-NG Radiosonde
KC0BQBU30247492022-12-06 12:08:4339.2681-94.16217310617170Clb=6.6m/s t=-66.9C h=4.7% p=-1.0hPa 404.000 MHz Type=RS41-NG ser=U3024749 Radiosonde auto_rx v1.5.5
KD0ZJV-10U30247492022-12-06 12:08:0839.2669-94.1656788017095Clb=4.1m/s t=-66.5C h=4.5% p=-1.0hPa 404.001 MHz Type=RS41-NG Radiosonde
N0GRP-1U30247492022-12-06 12:07:3039.2657-94.1696838017018Clb=4.4m/s t=-66.8C h=4.4% p=-1.0hPa 404.001 MHz Type=RS41-NG Radiosonde
KC0BQBU30247492022-12-06 12:07:2439.2656-94.1702769417007Clb=5.7m/s t=-66.8C h=4.4% p=-1.0hPa 404.000 MHz Type=RS41-NG ser=U3024749 Radiosonde auto_rx v1.5.5
KD0ZJV-10U30247492022-12-06 12:06:5139.265-94.1742808516929Clb=6.0m/s t=-67.2C h=4.5% p=-1.0hPa 404.001 MHz Type=RS41-NG Radiosonde
N0GRP-1U30247492022-12-06 12:06:2039.2649-94.1785896916851Clb=4.6m/s t=-67.3C h=4.7% p=-1.0hPa 404.001 MHz Type=RS41-NG Radiosonde
KC0BQBU30247492022-12-06 12:06:1639.2649-94.1785896916851Clb=4.6m/s t=-67.3C h=4.7% p=-1.0hPa 404.000 MHz Type=RS41-NG ser=U3024749 Radiosonde auto_rx v1.5.5
KD0ZJV-10U30247492022-12-06 12:05:3939.2652-94.18279010016771Clb=5.5m/s t=-66.8C h=4.5% p=-1.0hPa 404.001 MHz Type=RS41-NG Radiosonde
N0GRP-1U30247492022-12-06 12:05:0439.2654-94.18749410716695Clb=6.2m/s t=-66.4C h=4.4% p=-1.0hPa 404.001 MHz Type=RS41-NG Radiosonde
KC0BQBU30247492022-12-06 12:05:0339.2654-94.18749410716695Clb=6.2m/s t=-66.4C h=4.4% p=-1.0hPa 404.000 MHz Type=RS41-NG ser=U3024749 Radiosonde auto_rx v1.5.5
KD0ZJV-10U30247492022-12-06 12:04:2039.2659-94.192610010616615Clb=6.9m/s t=-66.0C h=4.3% p=-1.0hPa 404.001 MHz Type=RS41-NG Radiosonde
KC0BQBU30247492022-12-06 12:03:4839.2663-94.19721029816541Clb=5.6m/s t=-65.8C h=4.3% p=-1.0hPa 404.000 MHz Type=RS41-NG ser=U3024749 Radiosonde auto_rx v1.5.5
N0GRP-1U30247492022-12-06 12:03:4439.2663-94.19759810016537Clb=3.2m/s t=-65.7C h=4.3% p=-1.0hPa 404.001 MHz Type=RS41-NG Radiosonde
KD0ZJV-10U30247492022-12-06 12:03:0639.2668-94.20339913016459Clb=4.3m/s t=-65.1C h=4.4% p=-1.0hPa 404.001 MHz Type=RS41-NG Radiosonde
KC0BQBU30247492022-12-06 12:02:4039.2673-94.20819610616396Clb=6.1m/s t=-64.5C h=4.1% p=-1.0hPa 404.000 MHz Type=RS41-NG ser=U3024749 Radiosonde auto_rx v1.5.5
N0GRP-1U30247492022-12-06 12:02:3439.2673-94.20929811316383Clb=7.7m/s t=-64.4C h=4.1% p=-1.0hPa 404.001 MHz Type=RS41-NG Radiosonde
KD0ZJV-10U30247492022-12-06 12:01:5939.2678-94.21488911716304Clb=8.2m/s t=-64.4C h=4.2% p=-1.0hPa 404.001 MHz Type=RS41-NG Radiosonde
KC0BQBU30247492022-12-06 12:01:3539.268-94.21969111716228Clb=7.1m/s t=-64.3C h=3.8% p=-1.0hPa 404.000 MHz Type=RS41-NG ser=U3024749 Radiosonde auto_rx v1.5.5
N0GRP-1U30247492022-12-06 12:01:2739.2681-94.22089513316210Clb=5.2m/s t=-64.5C h=3.8% p=-1.0hPa 404.001 MHz Type=RS41-NG Radiosonde
KD0ZJV-10U30247492022-12-06 12:00:5439.2684-94.22839315416115Clb=4.2m/s t=-66.2C h=4.2% p=-1.0hPa 404.001 MHz Type=RS41-NG Radiosonde
KC0BQBU30247492022-12-06 12:00:3239.2684-94.2338415616060Clb=7.7m/s t=-66.2C h=4.1% p=-1.0hPa 404.000 MHz Type=RS41-NG ser=U3024749 Radiosonde auto_rx v1.5.5
N0GRP-1U30247492022-12-06 12:00:2039.2684-94.23548914816029Clb=6.5m/s t=-66.7C h=4.2% p=-1.0hPa 404.001 MHz Type=RS41-NG Radiosonde
KD0ZJV-10U30247492022-12-06 11:59:3639.2677-94.2438316115944Clb=4.5m/s t=-66.4C h=4.3% p=-1.0hPa 404.001 MHz Type=RS41-NG Radiosonde
KC0BQBU30247492022-12-06 11:59:1139.2673-94.24728414415900Clb=5.0m/s t=-66.2C h=4.2% p=-1.0hPa 404.000 MHz Type=RS41-NG ser=U3024749 Radiosonde auto_rx v1.5.5
N0GRP-1U30247492022-12-06 11:58:5639.2672-94.24968514315874Clb=3.7m/s t=-66.1C h=4.2% p=-1.0hPa 404.001 MHz Type=RS41-NG Radiosonde
KD0ZJV-10U30247492022-12-06 11:58:1439.2667-94.25798415415791Clb=5.8m/s t=-65.5C h=4.1% p=-1.0hPa 404.001 MHz Type=RS41-NG Radiosonde
KC0BQBU30247492022-12-06 11:57:5239.2663-94.26198514815751Clb=5.0m/s t=-65.3C h=4.1% p=-1.0hPa 404.000 MHz Type=RS41-NG ser=U3024749 Radiosonde auto_rx v1.5.5
N0GRP-1U30247492022-12-06 11:57:3339.2661-94.26498315915720Clb=5.9m/s t=-65.2C h=4.0% p=-1.0hPa 404.001 MHz Type=RS41-NG Radiosonde
KD0ZJV-10U30247492022-12-06 11:56:5939.2654-94.27358217015637Clb=4.1m/s t=-65.1C h=3.9% p=-1.0hPa 404.001 MHz Type=RS41-NG Radiosonde
KC0BQBU30247492022-12-06 11:56:4639.2651-94.27718415915603Clb=6.5m/s t=-65.2C h=3.8% p=-1.0hPa 404.000 MHz Type=RS41-NG ser=U3024749 Radiosonde auto_rx v1.5.5
N0GRP-1U30247492022-12-06 11:56:2739.2647-94.28078215215569Clb=4.8m/s t=-65.2C h=3.8% p=-1.0hPa 404.001 MHz Type=RS41-NG Radiosonde
KD0ZJV-10U30247492022-12-06 11:55:5439.2638-94.28968115715483Clb=5.7m/s t=-65.8C h=4.0% p=-1.0hPa 404.001 MHz Type=RS41-NG Radiosonde
KC0BQBU30247492022-12-06 11:55:4339.2635-94.29228416115459Clb=5.7m/s t=-65.8C h=4.0% p=-1.0hPa 404.000 MHz Type=RS41-NG ser=U3024749 Radiosonde auto_rx v1.5.5
N0GRP-1U30247492022-12-06 11:55:2239.2631-94.29628216115420Clb=4.1m/s t=-65.7C h=4.0% p=-1.0hPa 404.001 MHz Type=RS41-NG Radiosonde
KD0ZJV-10U30247492022-12-06 11:54:4339.2624-94.3058616715335Clb=6.6m/s t=-65.4C h=4.2% p=-1.0hPa 404.001 MHz Type=RS41-NG Radiosonde
KC0BQBU30247492022-12-06 11:54:3239.2624-94.30768417415310Clb=6.6m/s t=-65.3C h=4.0% p=-1.0hPa 404.000 MHz Type=RS41-NG ser=U3024749 Radiosonde auto_rx v1.5.5
N0GRP-1U30247492022-12-06 11:54:0839.2622-94.31299116715257Clb=5.0m/s t=-65.2C h=4.3% p=-1.0hPa 404.001 MHz Type=RS41-NG Radiosonde
KD0ZJV-10U30247492022-12-06 11:53:2639.2621-94.32178817615177Clb=5.6m/s t=-65.1C h=4.3% p=-1.0hPa 404.001 MHz Type=RS41-NG Radiosonde
KC0BQBU30247492022-12-06 11:53:1839.2621-94.3249217215157Clb=3.6m/s t=-65.2C h=4.5% p=-1.0hPa 404.000 MHz Type=RS41-NG ser=U3024749 Radiosonde auto_rx v1.5.5
N0GRP-1U30247492022-12-06 11:52:4939.2621-94.32979018115106Clb=5.4m/s t=-65.5C h=4.6% p=-1.0hPa 404.001 MHz Type=RS41-NG Radiosonde
KD0ZJV-10U30247492022-12-06 11:52:0639.2621-94.34018719315018Clb=6.2m/s t=-65.1C h=4.5% p=-1.0hPa 404.001 MHz Type=RS41-NG Radiosonde
KC0BQBU30247492022-12-06 11:52:0139.2621-94.34198819115001Clb=4.6m/s t=-65.1C h=4.5% p=-1.0hPa 404.000 MHz Type=RS41-NG ser=U3024749 Radiosonde auto_rx v1.5.5
N0GRP-1U30247492022-12-06 11:51:4839.2619-94.34888820414945Clb=5.5m/s t=-65.6C h=4.9% p=-1.0hPa 404.001 MHz Type=RS41-NG Radiosonde
KD0ZJV-10U30247492022-12-06 11:51:4339.2615-94.35978619814849Clb=4.7m/s t=-65.7C h=4.8% p=-1.0hPa 404.001 MHz Type=RS41-NG Radiosonde
KC0BQBU30247492022-12-06 11:51:4139.2613-94.3618120414838Clb=5.1m/s t=-65.6C h=4.8% p=-1.0hPa 404.000 MHz Type=RS41-NG ser=U3024749 Radiosonde auto_rx v1.5.5
N0GRP-1U30247492022-12-06 11:51:2439.2605-94.37028319114765Clb=5.6m/s t=-65.8C h=4.7% p=-1.0hPa 404.001 MHz Type=RS41-NG Radiosonde
KD0ZJV-10U30247492022-12-06 11:51:0039.2595-94.37897919114695Clb=4.1m/s t=-65.8C h=5.0% p=-1.0hPa 404.001 MHz Type=RS41-NG Radiosonde
N0GRP-1U30247492022-12-06 11:50:4839.258-94.38867819814619Clb=5.7m/s t=-65.5C h=4.8% p=-1.0hPa 404.001 MHz Type=RS41-NG Radiosonde
KC0BQBU30247492022-12-06 11:50:4339.2564-94.39787819414549Clb=3.2m/s t=-65.3C h=4.8% p=-1.0hPa 404.000 MHz Type=RS41-NG ser=U3024749 Radiosonde auto_rx v1.5.5
KD0ZJV-10U30247492022-12-06 11:50:4239.2564-94.39787819414549Clb=3.2m/s t=-65.3C h=4.8% p=-1.0hPa 404.001 MHz Type=RS41-NG Radiosonde
N0GRP-1U30247492022-12-06 11:50:2339.2549-94.40677518514480Clb=4.1m/s t=-65.2C h=4.9% p=-1.0hPa 404.001 MHz Type=RS41-NG Radiosonde
KC0BQBU30247492022-12-06 11:50:0639.2535-94.41597919614403Clb=5.8m/s t=-64.7C h=4.8% p=-1.0hPa 404.000 MHz Type=RS41-NG ser=U3024749 Radiosonde auto_rx v1.5.5
KD0ZJV-10U30247492022-12-06 11:50:0439.2534-94.41657818914398Clb=4.8m/s t=-64.6C h=4.8% p=-1.0hPa 404.001 MHz Type=RS41-NG Radiosonde
N0GRP-1U30247492022-12-06 11:50:0039.252-94.42657919614319Clb=5.5m/s t=-64.0C h=4.9% p=-1.0hPa 404.001 MHz Type=RS41-NG Radiosonde
KC0BQBU30247492022-12-06 11:49:5639.2509-94.43477920414257Clb=6.2m/s t=-63.5C h=4.8% p=-1.0hPa 404.000 MHz Type=RS41-NG ser=U3024749 Radiosonde auto_rx v1.5.5
KD0ZJV-10U30247492022-12-06 11:49:5539.2506-94.4367819814247Clb=4.7m/s t=-63.5C h=4.8% p=-1.0hPa 404.001 MHz Type=RS41-NG Radiosonde
N0GRP-1U30247492022-12-06 11:49:5039.2491-94.44557820614173Clb=6.1m/s t=-63.2C h=5.0% p=-1.0hPa 404.001 MHz Type=RS41-NG Radiosonde
KC0BQBU30247492022-12-06 11:49:4739.2477-94.4547920414109Clb=5.5m/s t=-63.2C h=5.0% p=-1.0hPa 404.000 MHz Type=RS41-NG ser=U3024749 Radiosonde auto_rx v1.5.5
KD0ZJV-10U30247492022-12-06 11:49:4539.2474-94.4567822014095Clb=3.1m/s t=-63.1C h=5.0% p=-1.0hPa 404.001 MHz Type=RS41-NG Radiosonde
N0GRP-1U30247492022-12-06 11:49:3339.2459-94.46678121314020Clb=4.4m/s t=-63.0C h=5.2% p=-1.0hPa 404.001 MHz Type=RS41-NG Radiosonde
KC0BQBU30247492022-12-06 11:49:2239.2449-94.47388120713967Clb=4.5m/s t=-62.9C h=5.4% p=-1.0hPa 404.000 MHz Type=RS41-NG ser=U3024749 Radiosonde auto_rx v1.5.5
KD0ZJV-10U30247492022-12-06 11:49:1639.2445-94.47657921113947Clb=4.5m/s t=-62.9C h=5.4% p=-1.0hPa 404.001 MHz Type=RS41-NG Radiosonde
N0GRP-1U30247492022-12-06 11:49:0039.2432-94.48718020413872Clb=5.1m/s t=-62.6C h=5.9% p=-1.0hPa 404.001 MHz Type=RS41-NG Radiosonde
KC0BQBU30247492022-12-06 11:48:5739.2423-94.49378420213822Clb=5.8m/s t=-62.1C h=5.9% p=-1.0hPa 404.000 MHz Type=RS41-NG ser=U3024749 Radiosonde auto_rx v1.5.5
KD0ZJV-10U30247492022-12-06 11:48:5339.2419-94.49768121113793Clb=3.8m/s t=-61.9C h=6.2% p=-1.0hPa 404.001 MHz Type=RS41-NG Radiosonde
N0GRP-1U30247492022-12-06 11:48:5039.2408-94.50728221313724Clb=5.3m/s t=-61.9C h=6.7% p=-1.0hPa 404.001 MHz Type=RS41-NG Radiosonde
KC0BQBU30247492022-12-06 11:48:4939.2401-94.51328121313682Clb=5.4m/s t=-61.7C h=6.9% p=-1.0hPa 404.000 MHz Type=RS41-NG ser=U3024749 Radiosonde auto_rx v1.5.5
N0GRP-1U30247492022-12-06 11:48:4839.2383-94.52727920913584Clb=5.7m/s t=-63.3C h=8.7% p=-1.0hPa 404.001 MHz Type=RS41-NG Radiosonde
KD0ZJV-10U30247492022-12-06 11:48:4739.2368-94.53818021513511Clb=5.2m/s t=-63.9C h=10.0% p=-1.0hPa 404.001 MHz Type=RS41-NG Radiosonde
N0GRP-1U30247492022-12-06 11:48:4539.2351-94.54897821713435Clb=4.6m/s t=-63.9C h=10.5% p=-1.0hPa 404.001 MHz Type=RS41-NG Radiosonde
KD0ZJV-10U30247492022-12-06 11:48:4439.2331-94.56017620013358Clb=5.5m/s t=-63.5C h=10.8% p=-1.0hPa 404.001 MHz Type=RS41-NG Radiosonde
N0GRP-1U30247492022-12-06 11:48:4339.2316-94.56847720713295Clb=5.9m/s t=-63.3C h=11.3% p=-1.0hPa 404.001 MHz Type=RS41-NG Radiosonde
KD0ZJV-10U30247492022-12-06 11:48:4139.2299-94.57928021513215Clb=3.5m/s t=-63.7C h=12.1% p=-1.0hPa 404.001 MHz Type=RS41-NG Radiosonde
N0GRP-1U30247492022-12-06 11:48:4039.2286-94.5898121313146Clb=4.5m/s t=-63.2C h=12.0% p=-1.0hPa 404.001 MHz Type=RS41-NG Radiosonde
KD0ZJV-10U30247492022-12-06 11:48:3939.2273-94.59958121113075Clb=4.3m/s t=-63.2C h=13.1% p=-1.0hPa 404.001 MHz Type=RS41-NG Radiosonde
N0GRP-1U30247492022-12-06 11:48:3839.226-94.60877920913022Clb=4.9m/s t=-62.8C h=13.4% p=-1.0hPa 404.001 MHz Type=RS41-NG Radiosonde
KD0ZJV-10U30247492022-12-06 11:48:3739.2246-94.61998220212930Clb=6.2m/s t=-62.3C h=13.7% p=-1.0hPa 404.001 MHz Type=RS41-NG Radiosonde
N0GRP-1U30247492022-12-06 11:48:3639.2235-94.62968020212862Clb=3.3m/s t=-62.7C h=15.9% p=-1.0hPa 404.001 MHz Type=RS41-NG Radiosonde
KC0BQBU30247492022-12-06 11:48:3539.2232-94.63168120912849Clb=4.4m/s t=-62.7C h=16.1% p=-1.0hPa 404.000 MHz Type=RS41-NG ser=U3024749 Radiosonde auto_rx v1.5.5
KD0ZJV-10U30247492022-12-06 11:48:2539.2223-94.64028220712789Clb=4.9m/s t=-62.2C h=16.4% p=-1.0hPa 404.001 MHz Type=RS41-NG Radiosonde
N0GRP-1U30247492022-12-06 11:47:5739.2214-94.65018219312723Clb=4.0m/s t=-62.1C h=17.2% p=-1.0hPa 404.001 MHz Type=RS41-NG Radiosonde
KC0BQBU30247492022-12-06 11:47:5239.2213-94.65148420612714Clb=5.1m/s t=-62.1C h=17.5% p=-1.0hPa 404.000 MHz Type=RS41-NG ser=U3024749 Radiosonde auto_rx v1.5.5
KD0ZJV-10U30247492022-12-06 11:47:2139.2205-94.66138120412650Clb=5.6m/s t=-62.1C h=18.3% p=-1.0hPa 404.001 MHz Type=RS41-NG Radiosonde
KC0BQBU30247492022-12-06 11:46:4839.2196-94.67128320412584Clb=5.3m/s t=-61.8C h=18.7% p=-1.0hPa 404.000 MHz Type=RS41-NG ser=U3024749 Radiosonde auto_rx v1.5.5
KD0ZJV-10U30247492022-12-06 11:46:2039.2188-94.68148521712521Clb=4.4m/s t=-61.7C h=18.6% p=-1.0hPa 404.001 MHz Type=RS41-NG Radiosonde
N0GRP-1U30247492022-12-06 11:45:5339.2179-94.69198422212455Clb=4.0m/s t=-61.4C h=19.9% p=-1.0hPa 404.001 MHz Type=RS41-NG Radiosonde
KC0BQBU30247492022-12-06 11:45:5239.2179-94.69198422212455Clb=4.0m/s t=-61.4C h=19.9% p=-1.0hPa 404.000 MHz Type=RS41-NG ser=U3024749 Radiosonde auto_rx v1.5.5
KD0ZJV-10U30247492022-12-06 11:45:2039.2168-94.70328021712382Clb=5.2m/s t=-61.1C h=21.9% p=-1.0hPa 404.001 MHz Type=RS41-NG Radiosonde
KC0BQBU30247492022-12-06 11:44:5439.2158-94.71298221712322Clb=4.1m/s t=-61.3C h=23.3% p=-1.0hPa 404.000 MHz Type=RS41-NG ser=U3024749 Radiosonde auto_rx v1.5.5
N0GRP-1U30247492022-12-06 11:44:5139.2157-94.71368221912318Clb=3.8m/s t=-61.3C h=23.2% p=-1.0hPa 404.001 MHz Type=RS41-NG Radiosonde
KD0ZJV-10U30247492022-12-06 11:44:1839.2145-94.72478221112247Clb=3.3m/s t=-61.4C h=23.4% p=-1.0hPa 404.001 MHz Type=RS41-NG Radiosonde
KC0BQBU30247492022-12-06 11:43:5339.2137-94.73388322612187Clb=5.4m/s t=-61.1C h=23.3% p=-1.0hPa 404.000 MHz Type=RS41-NG ser=U3024749 Radiosonde auto_rx v1.5.5
N0GRP-1U30247492022-12-06 11:43:4939.2135-94.73538221912177Clb=3.3m/s t=-61.1C h=23.4% p=-1.0hPa 404.001 MHz Type=RS41-NG Radiosonde
KD0ZJV-10U30247492022-12-06 11:43:1839.2124-94.74658321912101Clb=5.1m/s t=-60.7C h=22.9% p=-1.0hPa 404.001 MHz Type=RS41-NG Radiosonde
KC0BQBU30247492022-12-06 11:42:5439.2115-94.75488222012045Clb=5.2m/s t=-60.3C h=22.6% p=-1.0hPa 404.000 MHz Type=RS41-NG ser=U3024749 Radiosonde auto_rx v1.5.5
N0GRP-1U30247492022-12-06 11:42:4539.2112-94.7577822212032Clb=4.9m/s t=-60.2C h=22.8% p=-1.0hPa 404.001 MHz Type=RS41-NG Radiosonde
KD0ZJV-10U30247492022-12-06 11:42:1039.2099-94.76888222011953Clb=6.2m/s t=-60.0C h=22.9% p=-1.0hPa 404.001 MHz Type=RS41-NG Radiosonde
KC0BQBU30247492022-12-06 11:41:5139.2091-94.77587922211908Clb=3.0m/s t=-59.8C h=22.6% p=-1.0hPa 404.000 MHz Type=RS41-NG ser=U3024749 Radiosonde auto_rx v1.5.5
N0GRP-1U30247492022-12-06 11:41:4239.2088-94.77878322011890Clb=5.7m/s t=-59.6C h=22.3% p=-1.0hPa 404.001 MHz Type=RS41-NG Radiosonde
KD0ZJV-10U30247492022-12-06 11:41:1239.2075-94.79088122211808Clb=6.5m/s t=-59.0C h=23.0% p=-1.0hPa 404.001 MHz Type=RS41-NG Radiosonde
KC0BQBU30247492022-12-06 11:40:5339.2068-94.79718421111761Clb=4.2m/s t=-58.8C h=22.6% p=-1.0hPa 404.000 MHz Type=RS41-NG ser=U3024749 Radiosonde auto_rx v1.5.5
N0GRP-1U30247492022-12-06 11:40:4239.2064-94.80228323011728Clb=5.0m/s t=-58.8C h=24.1% p=-1.0hPa 404.001 MHz Type=RS41-NG Radiosonde
KD0ZJV-10U30247492022-12-06 11:40:1539.2054-94.81228022411663Clb=5.0m/s t=-58.5C h=24.2% p=-1.0hPa 404.001 MHz Type=RS41-NG Radiosonde
KC0BQBU30247492022-12-06 11:40:0039.2047-94.81888122611620Clb=5.1m/s t=-58.2C h=25.5% p=-1.0hPa 404.000 MHz Type=RS41-NG ser=U3024749 Radiosonde auto_rx v1.5.5
N0GRP-1U30247492022-12-06 11:39:5439.2043-94.82388222611586Clb=4.8m/s t=-58.0C h=27.7% p=-1.0hPa 404.001 MHz Type=RS41-NG Radiosonde
KD0ZJV-10U30247492022-12-06 11:39:4039.2033-94.83478322011517Clb=4.0m/s t=-57.5C h=32.9% p=-1.0hPa 404.001 MHz Type=RS41-NG Radiosonde
KC0BQBU30247492022-12-06 11:39:3339.2028-94.84038122211481Clb=3.0m/s t=-57.4C h=36.9% p=-1.0hPa 404.000 MHz Type=RS41-NG ser=U3024749 Radiosonde auto_rx v1.5.5
N0GRP-1U30247492022-12-06 11:39:2439.2024-94.84548422411448Clb=5.3m/s t=-57.2C h=40.4% p=-1.0hPa 404.001 MHz Type=RS41-NG Radiosonde
KD0ZJV-10U30247492022-12-06 11:39:0639.2016-94.85688721911372Clb=3.3m/s t=-57.3C h=49.6% p=-1.0hPa 404.001 MHz Type=RS41-NG Radiosonde
KC0BQBU30247492022-12-06 11:39:0039.2012-94.86188322811339Clb=4.5m/s t=-57.2C h=52.3% p=-1.0hPa 404.000 MHz Type=RS41-NG ser=U3024749 Radiosonde auto_rx v1.5.5
N0GRP-1U30247492022-12-06 11:38:5139.2009-94.86758521911300Clb=4.1m/s t=-57.0C h=55.1% p=-1.0hPa 404.001 MHz Type=RS41-NG Radiosonde
KD0ZJV-10U30247492022-12-06 11:38:3539.2002-94.87988622411223Clb=5.7m/s t=-57.0C h=65.5% p=-1.0hPa 404.001 MHz Type=RS41-NG Radiosonde
KC0BQBU30247492022-12-06 11:38:3039.2001-94.88358722811201Clb=5.8m/s t=-57.1C h=67.2% p=-1.0hPa 404.000 MHz Type=RS41-NG ser=U3024749 Radiosonde auto_rx v1.5.5
N0GRP-1U30247492022-12-06 11:38:2139.1997-94.89098622811156Clb=4.1m/s t=-56.8C h=67.4% p=-1.0hPa 404.001 MHz Type=RS41-NG Radiosonde
KD0ZJV-10U30247492022-12-06 11:38:0439.199-94.90268622211084Clb=3.0m/s t=-56.3C h=66.3% p=-1.0hPa 404.001 MHz Type=RS41-NG Radiosonde
KC0BQBU30247492022-12-06 11:38:0039.1988-94.90568623011066Clb=5.1m/s t=-56.1C h=66.1% p=-1.0hPa 404.000 MHz Type=RS41-NG ser=U3024749 Radiosonde auto_rx v1.5.5
N0GRP-1U30247492022-12-06 11:37:4939.1984-94.91298322611025Clb=3.7m/s t=-55.8C h=66.8% p=-1.0hPa 404.001 MHz Type=RS41-NG Radiosonde
KD0ZJV-10U30247492022-12-06 11:37:3739.1975-94.92538422210951Clb=4.5m/s t=-55.4C h=69.0% p=-1.0hPa 404.001 MHz Type=RS41-NG Radiosonde
KC0BQBU30247492022-12-06 11:37:3339.1974-94.92758423010939Clb=4.6m/s t=-55.3C h=69.6% p=-1.0hPa 404.000 MHz Type=RS41-NG ser=U3024749 Radiosonde auto_rx v1.5.5
N0GRP-1U30247492022-12-06 11:37:2039.1964-94.93838421910871Clb=3.8m/s t=-54.8C h=70.1% p=-1.0hPa 404.001 MHz Type=RS41-NG Radiosonde
KD0ZJV-10U30247492022-12-06 11:37:0239.1955-94.94768121510815Clb=2.8m/s t=-54.3C h=73.5% p=-1.0hPa 404.001 MHz Type=RS41-NG Radiosonde
KC0BQBU30247492022-12-06 11:37:0039.1953-94.9498122810807Clb=3.6m/s t=-54.3C h=73.4% p=-1.0hPa 404.000 MHz Type=RS41-NG ser=U3024749 Radiosonde auto_rx v1.5.5
N0GRP-1U30247492022-12-06 11:36:4739.1945-94.95758321510754Clb=3.4m/s t=-53.9C h=71.2% p=-1.0hPa 404.001 MHz Type=RS41-NG Radiosonde
KD0ZJV-10U30247492022-12-06 11:36:3139.1932-94.97038223010675Clb=5.2m/s t=-53.2C h=71.4% p=-1.0hPa 404.001 MHz Type=RS41-NG Radiosonde
KC0BQBU30247492022-12-06 11:36:3039.1932-94.97038223010675Clb=5.2m/s t=-53.2C h=71.4% p=-1.0hPa 404.000 MHz Type=RS41-NG ser=U3024749 Radiosonde auto_rx v1.5.5
N0GRP-1U30247492022-12-06 11:36:2939.1921-94.98098021510607Clb=2.7m/s t=-52.8C h=73.1% p=-1.0hPa 404.001 MHz Type=RS41-NG Radiosonde
KC0BQBU30247492022-12-06 11:36:2839.1908-94.99168022210538Clb=3.9m/s t=-52.1C h=68.2% p=-1.0hPa 404.000 MHz Type=RS41-NG ser=U3024749 Radiosonde auto_rx v1.5.5
N0GRP-1U30247492022-12-06 11:36:2739.1897-95.00228121710470Clb=5.1m/s t=-51.4C h=65.4% p=-1.0hPa 404.001 MHz Type=RS41-NG Radiosonde
KC0BQBU30247492022-12-06 11:36:2639.1884-95.01298023010403Clb=4.1m/s t=-50.8C h=60.8% p=-1.0hPa 404.000 MHz Type=RS41-NG ser=U3024749 Radiosonde auto_rx v1.5.5
KD0ZJV-10U30247492022-12-06 11:36:2539.1883-95.01377922810399Clb=4.4m/s t=-50.7C h=60.0% p=-1.0hPa 404.001 MHz Type=RS41-NG Radiosonde
N0GRP-1U30247492022-12-06 11:36:2439.1871-95.02438421910330Clb=3.3m/s t=-50.1C h=58.2% p=-1.0hPa 404.001 MHz Type=RS41-NG Radiosonde
KD0ZJV-10U30247492022-12-06 11:36:2339.1857-95.03578322010254Clb=4.3m/s t=-49.4C h=55.5% p=-1.0hPa 404.001 MHz Type=RS41-NG Radiosonde
N0GRP-1U30247492022-12-06 11:36:2039.1843-95.04637922210187Clb=5.4m/s t=-48.8C h=53.0% p=-1.0hPa 404.001 MHz Type=RS41-NG Radiosonde
KC0BQBU30247492022-12-06 11:36:1739.1832-95.05558222210130Clb=3.7m/s t=-48.3C h=52.5% p=-1.0hPa 404.000 MHz Type=RS41-NG ser=U3024749 Radiosonde auto_rx v1.5.5
KD0ZJV-10U30247492022-12-06 11:36:1639.1829-95.05778122810116Clb=5.0m/s t=-48.2C h=52.7% p=-1.0hPa 404.001 MHz Type=RS41-NG Radiosonde
N0GRP-1U30247492022-12-06 11:35:5939.1817-95.06827922210048Clb=3.9m/s t=-47.7C h=56.6% p=-1.0hPa 404.001 MHz Type=RS41-NG Radiosonde
KC0BQBU30247492022-12-06 11:35:4039.1806-95.0767792269997Clb=4.2m/s t=-47.3C h=57.1% p=-1.0hPa 404.000 MHz Type=RS41-NG ser=U3024749 Radiosonde auto_rx v1.5.5
KD0ZJV-10U30247492022-12-06 11:35:3239.1801-95.0802792199975Clb=5.4m/s t=-47.1C h=55.9% p=-1.0hPa 404.001 MHz Type=RS41-NG Radiosonde
N0GRP-1U30247492022-12-06 11:35:0739.1785-95.0922802249900Clb=3.9m/s t=-46.4C h=54.2% p=-1.0hPa 404.001 MHz Type=RS41-NG Radiosonde
KC0BQBU30247492022-12-06 11:34:4739.1778-95.0979792269866Clb=6.0m/s t=-46.2C h=52.1% p=-1.0hPa 404.000 MHz Type=RS41-NG ser=U3024749 Radiosonde auto_rx v1.5.5
KD0ZJV-10U30247492022-12-06 11:34:3739.1772-95.1013812199843Clb=4.4m/s t=-46.0C h=52.9% p=-1.0hPa 404.001 MHz Type=RS41-NG Radiosonde
N0GRP-1U30247492022-12-06 11:34:0739.1757-95.1133802199766Clb=5.1m/s t=-45.4C h=54.1% p=-1.0hPa 404.001 MHz Type=RS41-NG Radiosonde
KC0BQBU30247492022-12-06 11:33:4939.1749-95.1188802159732Clb=5.2m/s t=-45.2C h=54.4% p=-1.0hPa 404.000 MHz Type=RS41-NG ser=U3024749 Radiosonde auto_rx v1.5.5
KD0ZJV-10U30247492022-12-06 11:33:3839.1743-95.123792209706Clb=4.3m/s t=-45.1C h=57.4% p=-1.0hPa 404.001 MHz Type=RS41-NG Radiosonde
N0GRP-1U30247492022-12-06 11:33:1139.173-95.1333752199641Clb=5.1m/s t=-44.6C h=53.6% p=-1.0hPa 404.001 MHz Type=RS41-NG Radiosonde
KC0BQBU30247492022-12-06 11:32:5639.172-95.1393752079597Clb=6.2m/s t=-44.2C h=52.7% p=-1.0hPa 404.000 MHz Type=RS41-NG ser=U3024749 Radiosonde auto_rx v1.5.5
KD0ZJV-10U30247492022-12-06 11:32:4039.1713-95.144802139567Clb=4.6m/s t=-44.0C h=51.7% p=-1.0hPa 404.001 MHz Type=RS41-NG Radiosonde
N0GRP-1U30247492022-12-06 11:32:1239.1697-95.154772199497Clb=5.2m/s t=-43.6C h=49.7% p=-1.0hPa 404.001 MHz Type=RS41-NG Radiosonde
KC0BQBU30247492022-12-06 11:32:0039.1688-95.1593782139460Clb=4.8m/s t=-43.5C h=58.2% p=-1.0hPa 404.000 MHz Type=RS41-NG ser=U3024749 Radiosonde auto_rx v1.5.5
KD0ZJV-10U30247492022-12-06 11:31:5139.1679-95.1645782119426Clb=4.0m/s t=-43.4C h=63.9% p=-1.0hPa 404.001 MHz Type=RS41-NG Radiosonde
N0GRP-1U30247492022-12-06 11:31:3639.1662-95.1742782079365Clb=3.6m/s t=-43.3C h=81.5% p=-1.0hPa 404.001 MHz Type=RS41-NG Radiosonde
KC0BQBU30247492022-12-06 11:31:3039.1656-95.1785782049333Clb=5.7m/s t=-43.2C h=77.4% p=-1.0hPa 404.000 MHz Type=RS41-NG ser=U3024749 Radiosonde auto_rx v1.5.5
KD0ZJV-10U30247492022-12-06 11:31:2039.1647-95.1848792029287Clb=4.8m/s t=-42.9C h=73.2% p=-1.0hPa 404.001 MHz Type=RS41-NG Radiosonde
N0GRP-1U30247492022-12-06 11:31:1339.1637-95.1935831899228Clb=4.2m/s t=-42.6C h=69.4% p=-1.0hPa 404.001 MHz Type=RS41-NG Radiosonde
KD0ZJV-10U30247492022-12-06 11:31:1239.1626-95.2032831949157Clb=4.8m/s t=-42.2C h=68.3% p=-1.0hPa 404.001 MHz Type=RS41-NG Radiosonde
KC0BQBU30247492022-12-06 11:31:1139.1612-95.2152811859066Clb=4.4m/s t=-41.6C h=72.5% p=-1.0hPa 404.000 MHz Type=RS41-NG ser=U3024749 Radiosonde auto_rx v1.5.5
N0GRP-1U30247492022-12-06 11:31:1039.1596-95.2308811968946Clb=4.8m/s t=-40.6C h=74.2% p=-1.0hPa 404.001 MHz Type=RS41-NG Radiosonde
KC0BQBU30247492022-12-06 11:31:0739.1594-95.2332831858926Clb=4.6m/s t=-40.5C h=74.9% p=-1.0hPa 404.000 MHz Type=RS41-NG ser=U3024749 Radiosonde auto_rx v1.5.5
KD0ZJV-10U30247492022-12-06 11:30:5339.1585-95.241801898866Clb=4.8m/s t=-40.0C h=73.6% p=-1.0hPa 404.001 MHz Type=RS41-NG Radiosonde
N0GRP-1U30247492022-12-06 11:30:3039.1573-95.2504841818794Clb=6.3m/s t=-39.5C h=73.2% p=-1.0hPa 404.001 MHz Type=RS41-NG Radiosonde
KC0BQBU30247492022-12-06 11:30:2639.1573-95.251821728789Clb=4.0m/s t=-39.5C h=73.7% p=-1.0hPa 404.000 MHz Type=RS41-NG ser=U3024749 Radiosonde auto_rx v1.5.5
KD0ZJV-10U30247492022-12-06 11:30:0539.1563-95.2597811818723Clb=5.7m/s t=-38.9C h=72.8% p=-1.0hPa 404.001 MHz Type=RS41-NG Radiosonde
KC0BQBU30247492022-12-06 11:29:4039.1553-95.2685831808655Clb=5.1m/s t=-38.4C h=74.4% p=-1.0hPa 404.000 MHz Type=RS41-NG ser=U3024749 Radiosonde auto_rx v1.5.5
KD0ZJV-10U30247492022-12-06 11:29:1239.1544-95.2771811728586Clb=5.6m/s t=-37.9C h=74.8% p=-1.0hPa 404.001 MHz Type=RS41-NG Radiosonde
KC0BQBU30247492022-12-06 11:28:4739.1534-95.2858791788517Clb=3.6m/s t=-37.3C h=74.2% p=-1.0hPa 404.000 MHz Type=RS41-NG ser=U3024749 Radiosonde auto_rx v1.5.5
N0GRP-1U30247492022-12-06 11:28:4639.1534-95.2858791788517Clb=3.6m/s t=-37.3C h=-1.0% p=-1.0hPa 404.001 MHz Type=RS41-NG Radiosonde
KD0ZJV-10U30247492022-12-06 11:28:2039.1525-95.295841838444Clb=4.3m/s t=-36.7C h=74.5% p=-1.0hPa 404.001 MHz Type=RS41-NG Radiosonde
KC0BQBU30247492022-12-06 11:28:0039.1516-95.303821788379Clb=6.1m/s t=-36.2C h=74.5% p=-1.0hPa 404.000 MHz Type=RS41-NG ser=U3024749 Radiosonde auto_rx v1.5.5
N0GRP-1U30247492022-12-06 11:27:5939.1513-95.3065831748347Clb=5.1m/s t=-35.9C h=-1.0% p=-1.0hPa 404.001 MHz Type=RS41-NG Radiosonde
KD0ZJV-10U30247492022-12-06 11:27:4339.1507-95.3129801898295Clb=3.0m/s t=-35.5C h=77.6% p=-1.0hPa 404.001 MHz Type=RS41-NG Radiosonde
KC0BQBU30247492022-12-06 11:27:3139.15-95.3203811968232Clb=4.4m/s t=-35.0C h=82.1% p=-1.0hPa 404.000 MHz Type=RS41-NG ser=U3024749 Radiosonde auto_rx v1.5.5
N0GRP-1U30247492022-12-06 11:27:2839.1498-95.3216821938224Clb=3.2m/s t=-35.0C h=-1.0% p=-1.0hPa 404.001 MHz Type=RS41-NG Radiosonde
KD0ZJV-10U30247492022-12-06 11:27:1339.1486-95.3305851788131Clb=6.4m/s t=-34.7C h=88.6% p=-1.0hPa 404.001 MHz Type=RS41-NG Radiosonde
KC0BQBU30247492022-12-06 11:27:0039.148-95.3368801788063Clb=8.2m/s t=-34.3C h=92.2% p=-1.0hPa 404.000 MHz Type=RS41-NG ser=U3024749 Radiosonde auto_rx v1.5.5
N0GRP-1U30247492022-12-06 11:26:5639.1476-95.3422841918007Clb=4.6m/s t=-273.0C h=-1.0% p=-1.0hPa 404.001 MHz Type=RS41-NG Radiosonde
KD0ZJV-10U30247492022-12-06 11:26:4139.147-95.3472821637944Clb=6.8m/s t=-33.3C h=88.6% p=-1.0hPa 404.001 MHz Type=RS41-NG Radiosonde
KC0BQBU30247492022-12-06 11:26:3039.1466-95.3523801447891Clb=6.2m/s t=-32.8C h=88.0% p=-1.0hPa 404.000 MHz Type=RS41-NG ser=U3024749 Radiosonde auto_rx v1.5.5
N0GRP-1U30247492022-12-06 11:26:2539.1463-95.3543781567863Clb=8.6m/s t=-273.0C h=-1.0% p=-1.0hPa 404.001 MHz Type=RS41 Radiosonde
KD0ZJV-10U30247492022-12-06 11:26:1939.1453-95.3622821747781Clb=5.6m/s t=-32.1C h=87.3% p=-1.0hPa 404.001 MHz Type=RS41-NG Radiosonde
N0GRP-1U30247492022-12-06 11:26:1839.144-95.371771417683Clb=2.9m/s t=-273.0C h=-1.0% p=-1.0hPa 404.001 MHz Type=RS41 Radiosonde
KD0ZJV-10U30247492022-12-06 11:26:1739.1431-95.3769831337608Clb=6.0m/s t=-31.2C h=80.6% p=-1.0hPa 404.001 MHz Type=RS41-NG Radiosonde
KC0BQBU30247492022-12-06 11:26:1139.1426-95.3808841447564Clb=3.1m/s t=-30.9C h=80.2% p=-1.0hPa 404.000 MHz Type=RS41-NG ser=U3024749 Radiosonde auto_rx v1.5.5
N0GRP-1U30247492022-12-06 11:26:0739.1422-95.3835741447527Clb=5.4m/s t=-273.0C h=-1.0% p=-1.0hPa 404.001 MHz Type=RS41 Radiosonde
KD0ZJV-10U30247492022-12-06 11:25:4139.1409-95.3904751467440Clb=5.0m/s t=-30.1C h=78.1% p=-1.0hPa 404.001 MHz Type=RS41-NG Radiosonde
KC0BQBU30247492022-12-06 11:25:3039.1401-95.3939801447397Clb=5.6m/s t=-29.8C h=76.6% p=-1.0hPa 404.000 MHz Type=RS41-NG ser=U3024749 Radiosonde auto_rx v1.5.5
KD0ZJV-10U30247492022-12-06 11:24:5339.1387-95.4031831227262Clb=5.1m/s t=-29.2C h=75.0% p=-1.0hPa 404.001 MHz Type=RS41-NG Radiosonde
KC0BQBU30247492022-12-06 11:24:4439.1381-95.4059801397223Clb=5.8m/s t=-29.1C h=73.8% p=-1.0hPa 404.000 MHz Type=RS41-NG ser=U3024749 Radiosonde auto_rx v1.5.5
KD0ZJV-10U30247492022-12-06 11:24:0739.1363-95.4153671227075Clb=4.5m/s t=-27.9C h=70.9% p=-1.0hPa 404.001 MHz Type=RS41-NG Radiosonde
KC0BQBU30247492022-12-06 11:24:0039.136-95.4171841227050Clb=3.5m/s t=-27.7C h=67.0% p=-1.0hPa 404.000 MHz Type=RS41-NG ser=U3024749 Radiosonde auto_rx v1.5.5
KD0ZJV-10U30247492022-12-06 11:23:3439.1338-95.4271731246898Clb=6.0m/s t=-26.5C h=48.5% p=-1.0hPa 404.001 MHz Type=RS41-NG Radiosonde
KC0BQBU30247492022-12-06 11:23:3039.1336-95.4285761046876Clb=4.3m/s t=-26.3C h=46.9% p=-1.0hPa 404.000 MHz Type=RS41-NG ser=U3024749 Radiosonde auto_rx v1.5.5
KD0ZJV-10U30247492022-12-06 11:23:0339.1314-95.4379741196745Clb=5.9m/s t=-25.1C h=42.1% p=-1.0hPa 404.001 MHz Type=RS41-NG Radiosonde
KC0BQBU30247492022-12-06 11:23:0039.1312-95.4394831196724Clb=2.6m/s t=-24.9C h=42.5% p=-1.0hPa 404.000 MHz Type=RS41-NG ser=U3024749 Radiosonde auto_rx v1.5.5
KD0ZJV-10U30247492022-12-06 11:22:3239.129-95.4491701076576Clb=4.8m/s t=-24.0C h=55.7% p=-1.0hPa 404.001 MHz Type=RS41-NG Radiosonde
KC0BQBU30247492022-12-06 11:22:3039.1288-95.4498671076567Clb=4.5m/s t=-24.0C h=55.7% p=-1.0hPa 404.000 MHz Type=RS41-NG ser=U3024749 Radiosonde auto_rx v1.5.5
KD0ZJV-10U30247492022-12-06 11:22:0139.1265-95.4598681096419Clb=4.9m/s t=-23.0C h=62.3% p=-1.0hPa 404.001 MHz Type=RS41-NG Radiosonde
KC0BQBU30247492022-12-06 11:22:0039.1264-95.4602721026415Clb=3.7m/s t=-22.9C h=62.4% p=-1.0hPa 404.000 MHz Type=RS41-NG ser=U3024749 Radiosonde auto_rx v1.5.5
KD0ZJV-10U30247492022-12-06 11:21:5039.1237-95.4704811196259Clb=4.4m/s t=-21.4C h=54.7% p=-1.0hPa 404.001 MHz Type=RS41-NG Radiosonde
KC0BQBU30247492022-12-06 11:21:1839.1206-95.481270966088Clb=5.5m/s t=-19.7C h=47.8% p=-1.0hPa 404.000 MHz Type=RS41-NG ser=U3024749 Radiosonde auto_rx v1.5.5
KD0ZJV-10U30247492022-12-06 11:21:1639.1205-95.481574966083Clb=5.4m/s t=-19.7C h=47.6% p=-1.0hPa 404.001 MHz Type=RS41-NG Radiosonde
KC0BQBU30247492022-12-06 11:20:3839.1177-95.4912711045939Clb=4.8m/s t=-18.7C h=28.4% p=-1.0hPa 404.000 MHz Type=RS41-NG ser=U3024749 Radiosonde auto_rx v1.5.5
KD0ZJV-10U30247492022-12-06 11:20:3539.1175-95.491868965929Clb=4.5m/s t=-18.7C h=27.3% p=-1.0hPa 404.001 MHz Type=RS41-NG Radiosonde
KC0BQBU30247492022-12-06 11:20:0039.1148-95.5008671045791Clb=6.2m/s t=-17.6C h=20.1% p=-1.0hPa 404.000 MHz Type=RS41-NG ser=U3024749 Radiosonde auto_rx v1.5.5
KD0ZJV-10U30247492022-12-06 11:19:5739.1145-95.501660965777Clb=1.7m/s t=-17.5C h=19.2% p=-1.0hPa 404.001 MHz Type=RS41-NG Radiosonde
KC0BQBU30247492022-12-06 11:19:3039.1118-95.509966915638Clb=4.7m/s t=-16.6C h=26.3% p=-1.0hPa 404.000 MHz Type=RS41-NG ser=U3024749 Radiosonde auto_rx v1.5.5
KD0ZJV-10U30247492022-12-06 11:19:2639.1112-95.5114621195614Clb=3.4m/s t=-16.4C h=21.8% p=-1.0hPa 404.001 MHz Type=RS41-NG Radiosonde
KC0BQBU30247492022-12-06 11:19:0039.1088-95.5191591065478Clb=3.1m/s t=-15.2C h=20.5% p=-1.0hPa 404.000 MHz Type=RS41-NG ser=U3024749 Radiosonde auto_rx v1.5.5
KD0ZJV-10U30247492022-12-06 11:18:5539.1083-95.5207691095449Clb=8.0m/s t=-15.0C h=19.3% p=-1.0hPa 404.001 MHz Type=RS41-NG Radiosonde
KC0BQBU30247492022-12-06 11:18:3039.106-95.5283681065321Clb=8.5m/s t=-14.0C h=22.5% p=-1.0hPa 404.000 MHz Type=RS41-NG ser=U3024749 Radiosonde auto_rx v1.5.5
KD0ZJV-10U30247492022-12-06 11:18:2439.1054-95.530365915285Clb=7.0m/s t=-13.6C h=20.6% p=-1.0hPa 404.001 MHz Type=RS41-NG Radiosonde
KC0BQBU30247492022-12-06 11:18:0039.1034-95.5369691045158Clb=6.9m/s t=-12.6C h=14.8% p=-1.0hPa 404.000 MHz Type=RS41-NG ser=U3024749 Radiosonde auto_rx v1.5.5
KD0ZJV-10U30247492022-12-06 11:17:5239.1029-95.539671075125Clb=4.5m/s t=-12.3C h=14.4% p=-1.0hPa 404.001 MHz Type=RS41-NG Radiosonde
KC0BQBU30247492022-12-06 11:17:3339.1008-95.5456681094995Clb=4.3m/s t=-11.4C h=-1.0% p=-1.0hPa 404.000 MHz Type=RS41-NG ser=U3024749 Radiosonde auto_rx v1.5.5
KC0BQBU30247492022-12-06 11:17:1939.0981-95.554265914833Clb=7.1m/s t=-10.6C h=-1.0% p=-1.0hPa 404.000 MHz Type=RS41-NG ser=U3024749 Radiosonde auto_rx v1.5.5
KD0ZJV-10U30247492022-12-06 11:17:0639.0971-95.557363834780Clb=5.1m/s t=-10.3C h=19.8% p=-1.0hPa 404.001 MHz Type=RS41-NG Radiosonde
KC0BQBU30247492022-12-06 11:16:3939.0951-95.563568934668Clb=5.3m/s t=-273.0C h=-1.0% p=-1.0hPa 404.000 MHz Type=RS41 ser=U3024749 Radiosonde auto_rx v1.5.5
KD0ZJV-10U30247492022-12-06 11:16:2439.0944-95.566751004620Clb=3.7m/s t=-10.5C h=39.4% p=-1.0hPa 404.001 MHz Type=RS41-NG Radiosonde
KD0ZJV-10U30247492022-12-06 11:15:4839.0925-95.574387704466Clb=4.9m/s t=-10.0C h=62.7% p=-1.0hPa 404.001 MHz Type=RS41-NG Radiosonde
KC0BQBU30247492022-12-06 11:15:3039.0915-95.578786784373Clb=4.2m/s t=-273.0C h=-1.0% p=-1.0hPa 404.000 MHz Type=RS41 ser=U3024749 Radiosonde auto_rx v1.5.5
KD0ZJV-10U30247492022-12-06 11:15:1739.0909-95.581474564310Clb=4.2m/s t=-9.5C h=69.4% p=-1.0hPa 404.001 MHz Type=RS41-NG Radiosonde
KC0BQBU30247492022-12-06 11:15:0039.0903-95.584879614219Clb=4.2m/s t=-273.0C h=-1.0% p=-1.0hPa 404.000 MHz Type=RS41 ser=U3024749 Radiosonde auto_rx v1.5.5
KD0ZJV-10U30247492022-12-06 11:14:4639.0896-95.587175694148Clb=4.4m/s t=-8.3C h=49.7% p=-1.0hPa 404.001 MHz Type=RS41-NG Radiosonde
KD0ZJV-10U30247492022-12-06 11:14:1839.0879-95.59369703976Clb=7.3m/s t=-6.7C h=45.8% p=-1.0hPa 404.001 MHz Type=RS41-NG Radiosonde
KD0ZJV-10U30247492022-12-06 11:13:4439.0871-95.5986101463825Clb=6.1m/s t=-6.0C h=43.5% p=-1.0hPa 404.001 MHz Type=RS41-NG Radiosonde
KD0ZJV-10U30247492022-12-06 11:13:1339.0863-95.603989703668Clb=5.9m/s t=-4.9C h=63.2% p=-1.0hPa 404.001 MHz Type=RS41-NG Radiosonde
KD0ZJV-10U30247492022-12-06 11:12:5139.0857-95.609882443507Clb=5.1m/s t=-3.4C h=64.1% p=-1.0hPa 404.001 MHz Type=RS41-NG Radiosonde
KD0ZJV-10U30247492022-12-06 11:12:1239.0848-95.615364443335Clb=3.3m/s t=-2.1C h=58.3% p=-1.0hPa 404.001 MHz Type=RS41-NG Radiosonde
KD0ZJV-10U30247492022-12-06 11:11:4039.0842-95.620365613179Clb=3.8m/s t=-0.9C h=51.1% p=-1.0hPa 404.001 MHz Type=RS41-NG Radiosonde
KD0ZJV-10U30247492022-12-06 11:11:0939.0829-95.62575673012Clb=5.9m/s t=0.5C h=47.8% p=-1.0hPa 404.001 MHz Type=RS41-NG Radiosonde
KD0ZJV-10U30247492022-12-06 11:10:3839.0816-95.629555462855Clb=4.5m/s t=2.0C h=44.3% p=-1.0hPa 404.001 MHz Type=RS41-NG Radiosonde
KD0ZJV-10U30247492022-12-06 11:10:0739.0802-95.634791502694Clb=4.3m/s t=3.5C h=40.0% p=-1.0hPa 404.001 MHz Type=RS41-NG Radiosonde
KD0ZJV-10U30247492022-12-06 11:09:3539.0791-95.639692482528Clb=5.1m/s t=4.5C h=37.8% p=-1.0hPa 404.001 MHz Type=RS41-NG Radiosonde
KD0ZJV-10U30247492022-12-06 11:09:0439.0783-95.643565222350Clb=5.1m/s t=4.4C h=45.1% p=-1.0hPa 404.001 MHz Type=RS41-NG Radiosonde
KD0ZJV-10U30247492022-12-06 11:08:3439.0773-95.645533262181Clb=6.2m/s t=4.6C h=46.5% p=-1.0hPa 404.001 MHz Type=RS41-NG Radiosonde
KD0ZJV-10U30247492022-12-06 11:08:0339.0765-95.64632242024Clb=5.7m/s t=4.8C h=48.5% p=-1.0hPa 404.001 MHz Type=RS41-NG Radiosonde
KD0ZJV-10U30247492022-12-06 11:07:3139.0752-95.6456332241856Clb=4.7m/s t=6.1C h=47.5% p=-1.0hPa 404.001 MHz Type=RS41-NG Radiosonde
KD0ZJV-10U30247492022-12-06 11:07:0039.0738-95.6443294311718Clb=4.1m/s t=7.0C h=-1.0% p=-1.0hPa 404.001 MHz Type=RS41-NG Radiosonde
KD0ZJV-10U30247492022-12-06 11:06:2939.0726-95.6428299221569Clb=7.2m/s t=6.7C h=-1.0% p=-1.0hPa 404.001 MHz Type=RS41-NG Radiosonde
KD0ZJV-10U30247492022-12-06 11:05:5839.0714-95.6414271111399Clb=5.1m/s t=6.6C h=-1.0% p=-1.0hPa 404.001 MHz Type=RS41 Radiosonde